M I D A S
Marine Information and Data Acquisition System
Tripno 435 of the Zeeleeuw from 2003-02-24 07:24:40 to 2003-02-24 15:38:59
Back to CruiseResearch ActivitiesStationsMapUnderway DataData graphs

EquipmentUnitsComment
TimeDGPSUTC
LatitudeDGPSDM.mWGS84
LongitudeDGPSDM.mWGS84
TemperatureSBE03/SBE38deg celciusITS90
ConductivitySBE21S/mITS90
SalinitySBE21 Practical Salinity Units
ChlorophylAChelsea fluorimeterg/lCalibrated in Aceton
Missing or incorrect values are displayed as -999
Sea surface data collected by the RV Zeeleeuw from 2003-02-24 07:24:40 to 2003-02-24 15:38:59
                                                                                    Next 1000 lines
Time Latitude Longitude Temperature Conductivity Salinity ChlorophylA
2003-02-24 07:24:48 51°13.594 2°56.105 10.321258 3.693395 23.442373 -0.848668
2003-02-24 07:24:53 51°13.594 2°56.105 10.321258 3.693395 23.442373 -0.848668
2003-02-24 07:24:58 51°13.594 2°56.105 10.320605 3.69329 23.441973 -0.882377
2003-02-24 07:25:03 51°13.594 2°56.105 10.323825 3.69329 23.442314 -0.848668
2003-02-24 07:25:08 51°13.594 2°56.105 10.323825 3.693185 23.442256 -0.848668
2003-02-24 07:25:13 51°13.594 2°56.105 10.323732 3.693079 23.441515 -0.814958
2003-02-24 07:25:18 51°13.593 2°56.105 10.323872 3.693185 23.442597 -0.848668
2003-02-24 07:25:23 51°13.593 2°56.105 10.323872 3.693185 23.442597 -0.848668
2003-02-24 07:25:28 51°13.593 2°56.105 10.323872 3.693185 23.442597 -0.848668
2003-02-24 07:25:33 51°13.593 2°56.105 10.325459 3.693079 23.441856 -0.882377
2003-02-24 07:25:38 51°13.593 2°56.105 10.326206 3.693079 23.442538 -0.848668
2003-02-24 07:25:43 51°13.593 2°56.105 10.326999 3.692974 23.441798 -0.848668
2003-02-24 07:25:47 51°13.593 2°56.104 10.328632 3.692974 23.441798 -0.882377
2003-02-24 07:25:52 51°13.593 2°56.103 10.328632 3.692974 23.441798 -0.882377
2003-02-24 07:25:56 51°13.594 2°56.102 10.330686 3.692974 23.442139 -0.848668
2003-02-24 07:26:03 51°13.595 2°56.099 10.332412 3.692868 23.441739 -0.848668
2003-02-24 07:26:08 51°13.596 2°56.095 10.343564 3.692868 23.441739 -0.814958
2003-02-24 07:26:13 51°13.597 2°56.091 10.341978 3.692763 23.44134 -0.848668
2003-02-24 07:26:18 51°13.598 2°56.086 10.343097 3.692763 23.442022 -0.848668
2003-02-24 07:26:23 51°13.599 2°56.08 10.343097 3.692763 23.442022 -0.848668
2003-02-24 07:26:28 51°13.6 2°56.073 10.339738 3.692763 23.442022 -0.848668
2003-02-24 07:26:33 51°13.602 2°56.066 10.341371 3.692658 23.441622 -0.882377
2003-02-24 07:26:38 51°13.604 2°56.059 10.341044 3.692658 23.441622 -0.848668
2003-02-24 07:26:43 51°13.607 2°56.051 10.343657 3.692552 23.441564 -0.882377
2003-02-24 07:26:48 51°13.609 2°56.042 10.341791 3.692552 23.441564 -0.848668
2003-02-24 07:26:53 51°13.612 2°56.033 10.341791 3.692552 23.441564 -0.848668
2003-02-24 07:26:58 51°13.614 2°56.024 10.336658 3.692552 23.442246 -0.848668
2003-02-24 07:27:03 51°13.617 2°56.015 10.337872 3.692447 23.441164 -0.848668
2003-02-24 07:27:08 51°13.62 2°56.005 10.338991 3.692447 23.441505 -0.882377
2003-02-24 07:27:13 51°13.623 2°55.995 10.339551 3.692447 23.441846 -0.848668
2003-02-24 07:27:18 51°13.626 2°55.985 10.337452 3.692342 23.441106 -0.848668
2003-02-24 07:27:23 51°13.63 2°55.975 10.337452 3.692342 23.441106 -0.848668
2003-02-24 07:27:28 51°13.633 2°55.965 10.334839 3.692342 23.441788 -0.882377
2003-02-24 07:27:33 51°13.637 2°55.955 10.338945 3.692236 23.441047 -0.848668
2003-02-24 07:27:38 51°13.64 2°55.945 10.334279 3.692236 23.441388 -0.848668
2003-02-24 07:27:43 51°13.644 2°55.935 10.328772 3.692236 23.441729 -0.882377
2003-02-24 07:27:48 51°13.647 2°55.925 10.329846 3.692236 23.441729 -0.848668
2003-02-24 07:27:53 51°13.65 2°55.915 10.329846 3.692236 23.441729 -0.848668
2003-02-24 07:27:58 51°13.653 2°55.905 10.333859 3.692131 23.440989 -0.882377
2003-02-24 07:28:03 51°13.657 2°55.895 10.337172 3.692131 23.44133 -0.848668
2003-02-24 07:28:08 51°13.66 2°55.886 10.328259 3.692131 23.44133 -0.814958
2003-02-24 07:28:13 51°13.663 2°55.876 10.336378 3.69192 23.440189 -0.848668
2003-02-24 07:28:18 51°13.666 2°55.867 10.336845 3.692026 23.44093 -0.882377
2003-02-24 07:28:23 51°13.668 2°55.858 10.336845 3.692026 23.44093 -0.882377
2003-02-24 07:28:28 51°13.671 2°55.848 10.337685 3.69192 23.44053 -0.848668
2003-02-24 07:28:33 51°13.673 2°55.839 10.337732 3.69192 23.440872 -0.848668
2003-02-24 07:28:38 51°13.675 2°55.83 10.340158 3.691815 23.43979 -0.848668
2003-02-24 07:28:43 51°13.677 2°55.822 10.338338 3.691815 23.440131 -0.848668
2003-02-24 07:28:48 51°13.68 2°55.813 10.340531 3.691709 23.439731 -0.814958
2003-02-24 07:28:53 51°13.682 2°55.804 10.340531 3.691709 23.439731 -0.814958
2003-02-24 07:28:58 51°13.683 2°55.795 10.341604 3.691815 23.440472 -0.848668
2003-02-24 07:29:03 51°13.685 2°55.787 10.340858 3.691709 23.440413 -0.848668
2003-02-24 07:29:08 51°13.686 2°55.779 10.342118 3.691709 23.440755 -0.848668
2003-02-24 07:29:13 51°13.687 2°55.772 10.342258 3.691709 23.440755 -0.848668
2003-02-24 07:29:18 51°13.689 2°55.765 10.341138 3.691604 23.440014 -0.882377
2003-02-24 07:29:23 51°13.689 2°55.758 10.341138 3.691604 23.440014 -0.882377
2003-02-24 07:29:28 51°13.69 2°55.752 10.341324 3.691604 23.440355 -0.848668
2003-02-24 07:29:33 51°13.691 2°55.747 10.34515 3.691604 23.440014 -0.848668
2003-02-24 07:29:38 51°13.691 2°55.742 10.345057 3.691499 23.439955 -0.848668
2003-02-24 07:29:43 51°13.692 2°55.739 10.345337 3.691393 23.439214 -0.848668
2003-02-24 07:29:48 51°13.692 2°55.736 10.34669 3.691393 23.439556 -0.848668
2003-02-24 07:29:53 51°13.692 2°55.734 10.34669 3.691393 23.439556 -0.848668
2003-02-24 07:29:58 51°13.692 2°55.733 10.344217 3.691393 23.439897 -0.848668
2003-02-24 07:30:03 51°13.693 2°55.732 10.348369 3.691393 23.440238 -0.848668
2003-02-24 07:30:08 51°13.693 2°55.732 10.348136 3.691393 23.439897 -0.848668
2003-02-24 07:30:12 51°13.694 2°55.732 10.349442 3.691288 23.439838 -0.882377
2003-02-24 07:30:18 51°13.695 2°55.733 10.350235 3.691393 23.440238 -0.882377
2003-02-24 07:30:23 51°13.695 2°55.734 10.350235 3.691393 23.440238 -0.882377
2003-02-24 07:30:28 51°13.697 2°55.736 10.350235 3.691288 23.439838 -0.882377
2003-02-24 07:30:33 51°13.698 2°55.737 10.351215 3.691183 23.439439 -0.848668
2003-02-24 07:30:38 51°13.7 2°55.739 10.350655 3.691288 23.440521 -0.882377
2003-02-24 07:30:43 51°13.702 2°55.74 10.348556 3.691077 23.43938 -0.848668
2003-02-24 07:30:47 51°13.703 2°55.741 10.346037 3.691077 23.439721 -0.848668
2003-02-24 07:30:52 51°13.706 2°55.742 10.346037 3.691077 23.439721 -0.848668
2003-02-24 07:30:57 51°13.708 2°55.743 10.342864 3.691077 23.439721 -0.848668
2003-02-24 07:31:03 51°13.711 2°55.744 10.338245 3.690972 23.439322 -0.848668
2003-02-24 07:31:08 51°13.714 2°55.745 10.336985 3.690972 23.439322 -0.814958
2003-02-24 07:31:13 51°13.718 2°55.746 10.338665 3.691077 23.440063 -0.848668
2003-02-24 07:31:18 51°13.721 2°55.745 10.341838 3.690972 23.439663 -0.848668
2003-02-24 07:31:23 51°13.724 2°55.745 10.341838 3.690972 23.439663 -0.848668
2003-02-24 07:31:28 51°13.728 2°55.744 10.344077 3.690867 23.438922 -0.882377
2003-02-24 07:31:33 51°13.731 2°55.742 10.335165 3.690867 23.438922 -0.848668
2003-02-24 07:31:38 51°13.735 2°55.74 10.328072 3.690867 23.439263 -0.848668
2003-02-24 07:31:43 51°13.74 2°55.737 10.306508 3.690867 23.439263 -0.848668
2003-02-24 07:31:48 51°13.744 2°55.732 10.304128 3.690761 23.439546 -0.882377
2003-02-24 07:31:53 51°13.749 2°55.728 10.304128 3.690761 23.439546 -0.882377
2003-02-24 07:31:57 51°13.753 2°55.724 10.323125 3.690761 23.439546 -0.848668
2003-02-24 07:32:03 51°13.759 2°55.716 10.347063 3.690761 23.439546 -0.848668
2003-02-24 07:32:06 51°13.762 2°55.713 10.361617 3.690656 23.438464 -0.814958
2003-02-24 07:32:12 51°13.769 2°55.705 10.365629 3.690656 23.438122 -0.848668
2003-02-24 07:32:17 51°13.775 2°55.698 10.366561 3.690656 23.438122 -0.848668
2003-02-24 07:32:23 51°13.782 2°55.689 10.366561 3.690656 23.438122 -0.848668
2003-02-24 07:32:28 51°13.788 2°55.682 10.371598 3.690656 23.438464 -0.848668
2003-02-24 07:32:33 51°13.795 2°55.674 10.370712 3.69055 23.437723 -0.848668
2003-02-24 07:32:37 51°13.8 2°55.668 10.372438 3.69055 23.438747 -0.848668
2003-02-24 07:32:43 51°13.809 2°55.659 10.371319 3.69055 23.438747 -0.848668
2003-02-24 07:32:48 51°13.816 2°55.651 10.370386 3.69055 23.439088 -0.848668
2003-02-24 07:32:53 51°13.824 2°55.643 10.370386 3.69055 23.439088 -0.848668
2003-02-24 07:32:58 51°13.831 2°55.635 10.369919 3.690445 23.439029 -0.814958
2003-02-24 07:33:03 51°13.839 2°55.628 10.366422 3.690445 23.439371 -0.848668
2003-02-24 07:33:08 51°13.847 2°55.62 10.364556 3.69034 23.438971 -0.848668
2003-02-24 07:33:13 51°13.855 2°55.612 10.36936 3.69034 23.438971 -0.882377
2003-02-24 07:33:18 51°13.864 2°55.605 10.366795 3.69034 23.439654 -0.848668
2003-02-24 07:33:23 51°13.873 2°55.598 10.366795 3.69034 23.439654 -0.848668
2003-02-24 07:33:27 51°13.88 2°55.592 10.360918 3.69034 23.439654 -0.848668
2003-02-24 07:33:32 51°13.889 2°55.585 10.359192 3.690234 23.439254 -0.882377
2003-02-24 07:33:38 51°13.901 2°55.577 10.361477 3.690129 23.438854 -0.848668
2003-02-24 07:33:43 51°13.91 2°55.57 10.36866 3.690234 23.439595 -0.848668
2003-02-24 07:33:48 51°13.92 2°55.563 10.36922 3.690234 23.439937 -0.814958
2003-02-24 07:33:53 51°13.93 2°55.557 10.36922 3.690234 23.439937 -0.814958
2003-02-24 07:33:58 51°13.94 2°55.55 10.371738 3.690129 23.439195 -0.848668
2003-02-24 07:34:03 51°13.949 2°55.543 10.373091 3.690129 23.439195 -0.848668
2003-02-24 07:34:08 51°13.959 2°55.536 10.374303 3.690024 23.439137 -0.848668
2003-02-24 07:34:12 51°13.967 2°55.531 10.375656 3.690024 23.438796 -0.848668
2003-02-24 07:34:16 51°13.975 2°55.526 10.375935 3.690024 23.438796 -0.848668
2003-02-24 07:34:23 51°13.989 2°55.516 10.375935 3.690024 23.438796 -0.848668
2003-02-24 07:34:28 51°14 2°55.509 10.376448 3.690024 23.438796 -0.882377
2003-02-24 07:34:33 51°14.01 2°55.502 10.378733 3.689918 23.438055 -0.882377
2003-02-24 07:34:38 51°14.02 2°55.495 10.377101 3.689918 23.438396 -0.848668
2003-02-24 07:34:43 51°14.03 2°55.488 10.378547 3.689918 23.438396 -0.814958
2003-02-24 07:34:47 51°14.038 2°55.482 10.381811 3.689918 23.438737 -0.848668
2003-02-24 07:34:52 51°14.048 2°55.475 10.381811 3.689918 23.438737 -0.848668
2003-02-24 07:34:57 51°14.058 2°55.467 10.382604 3.689813 23.438337 -0.848668
2003-02-24 07:35:03 51°14.07 2°55.459 10.383816 3.689918 23.439079 -0.848668
2003-02-24 07:35:08 51°14.081 2°55.451 10.383956 3.689813 23.438679 -0.848668
2003-02-24 07:35:13 51°14.091 2°55.444 10.385261 3.689708 23.438279 -0.848668
2003-02-24 07:35:17 51°14.099 2°55.438 10.386753 3.689813 23.43902 -0.848668
2003-02-24 07:35:23 51°14.111 2°55.428 10.386753 3.689813 23.43902 -0.848668
2003-02-24 07:35:28 51°14.121 2°55.42 10.388012 3.689813 23.439362 -0.814958
2003-02-24 07:35:33 51°14.131 2°55.412 10.386147 3.689602 23.437538 -0.848668
2003-02-24 07:35:37 51°14.139 2°55.406 10.388152 3.689602 23.437538 -0.848668
2003-02-24 07:35:43 51°14.152 2°55.395 10.391276 3.689602 23.437879 -0.848668
2003-02-24 07:35:48 51°14.162 2°55.387 10.392162 3.689497 23.437479 -0.882377
2003-02-24 07:35:53 51°14.172 2°55.378 10.392162 3.689497 23.437479 -0.882377
2003-02-24 07:35:58 51°14.182 2°55.368 10.393933 3.689497 23.437479 -0.848668
2003-02-24 07:36:03 51°14.191 2°55.358 10.393001 3.689497 23.437821 -0.882377
2003-02-24 07:36:08 51°14.201 2°55.348 10.393234 3.689391 23.437421 -0.848668
2003-02-24 07:36:12 51°14.208 2°55.339 10.393654 3.689497 23.438162 -0.848668
2003-02-24 07:36:17 51°14.218 2°55.328 10.395006 3.689497 23.438504 -0.882377
2003-02-24 07:36:23 51°14.228 2°55.313 10.395006 3.689497 23.438504 -0.882377
2003-02-24 07:36:28 51°14.237 2°55.301 10.394213 3.689391 23.437421 -0.814958
2003-02-24 07:36:33 51°14.246 2°55.288 10.404748 3.689391 23.437762 -0.848668
2003-02-24 07:36:38 51°14.254 2°55.275 10.404329 3.689286 23.437363 -0.848668
2003-02-24 07:36:43 51°14.263 2°55.262 10.4116 3.689391 23.437421 -0.848668
2003-02-24 07:36:48 51°14.271 2°55.249 10.410621 3.689286 23.437363 -0.848668
2003-02-24 07:36:53 51°14.279 2°55.235 10.410621 3.689286 23.437363 -0.848668
2003-02-24 07:36:58 51°14.287 2°55.221 10.408104 3.689286 23.437363 -0.848668
2003-02-24 07:37:03 51°14.295 2°55.207 10.408198 3.689286 23.438045 -0.814958
2003-02-24 07:37:08 51°14.302 2°55.192 10.410994 3.689181 23.436963 -0.848668
2003-02-24 07:37:13 51°14.31 2°55.178 10.409736 3.689181 23.437304 -0.882377
2003-02-24 07:37:18 51°14.317 2°55.163 10.415748 3.689181 23.437646 -0.882377
2003-02-24 07:37:23 51°14.325 2°55.149 10.415748 3.689181 23.437646 -0.882377
2003-02-24 07:37:28 51°14.332 2°55.134 10.416307 3.689075 23.437246 -0.848668
2003-02-24 07:37:33 51°14.34 2°55.119 10.417426 3.689075 23.436904 -0.814958
2003-02-24 07:37:38 51°14.348 2°55.105 10.420688 3.689075 23.436904 -0.848668
2003-02-24 07:37:43 51°14.355 2°55.09 10.415655 3.689075 23.437246 -0.882377
2003-02-24 07:37:48 51°14.362 2°55.075 10.412159 3.68897 23.436846 -0.882377
2003-02-24 07:37:53 51°14.369 2°55.059 10.412159 3.68897 23.436846 -0.882377
2003-02-24 07:37:58 51°14.376 2°55.043 10.401392 3.68897 23.437187 -0.848668
2003-02-24 07:38:03 51°14.382 2°55.026 10.395751 3.68897 23.43787 -0.814958
2003-02-24 07:38:08 51°14.388 2°55.008 10.398875 3.68897 23.43787 -0.848668
2003-02-24 07:38:12 51°14.392 2°54.993 10.409829 3.689075 23.433491 -0.814958
2003-02-24 07:38:18 51°14.399 2°54.97 10.408291 3.68897 23.427972 -0.882377
2003-02-24 07:38:23 51°14.404 2°54.949 10.408291 3.68897 23.427972 -0.882377
2003-02-24 07:38:28 51°14.409 2°54.927 10.406333 3.689181 23.428431 -0.882377
2003-02-24 07:38:32 51°14.412 2°54.91 10.410342 3.689286 23.428831 -0.848668
2003-02-24 07:38:38 51°14.416 2°54.881 10.411926 3.689286 23.428149 -0.848668
2003-02-24 07:38:43 51°14.418 2°54.857 10.40871 3.689602 23.430371 -0.848668
2003-02-24 07:38:48 51°14.419 2°54.831 10.408058 3.689497 23.42963 -0.882377
2003-02-24 07:38:53 51°14.419 2°54.806 10.408058 3.689497 23.42963 -0.882377
2003-02-24 07:38:58 51°14.418 2°54.78 10.403163 3.689602 23.431054 -0.848668
2003-02-24 07:39:03 51°14.416 2°54.754 10.412113 3.689707 23.432136 -0.814958
2003-02-24 07:39:08 51°14.414 2°54.727 10.418731 3.689707 23.432477 -0.848668
2003-02-24 07:39:13 51°14.411 2°54.7 10.410062 3.689707 23.432818 -0.848668
2003-02-24 07:39:18 51°14.407 2°54.673 10.398455 3.689918 23.433618 -0.848668
2003-02-24 07:39:23 51°14.403 2°54.646 10.398455 3.689918 23.433618 -0.848668
2003-02-24 07:39:28 51°14.399 2°54.619 10.41188 3.689918 23.433618 -0.848668
2003-02-24 07:39:33 51°14.394 2°54.593 10.405401 3.690024 23.434018 -0.848668
2003-02-24 07:39:38 51°14.389 2°54.566 10.40857 3.690129 23.4351 -0.848668
2003-02-24 07:39:43 51°14.384 2°54.539 10.409922 3.690234 23.4355 -0.848668
2003-02-24 07:39:48 51°14.378 2°54.513 10.415142 3.690023 23.431288 -0.848668
2003-02-24 07:39:53 51°14.372 2°54.487 10.415142 3.690023 23.431288 -0.848668
2003-02-24 07:39:58 51°14.367 2°54.461 10.41407 3.690656 23.435393 -0.814958
2003-02-24 07:40:03 51°14.36 2°54.435 10.412346 3.689813 23.429465 -0.848668
2003-02-24 07:40:08 51°14.354 2°54.409 10.412346 3.690445 23.435276 -0.882377
2003-02-24 07:40:13 51°14.347 2°54.383 10.412206 3.69055 23.436017 -0.814958
2003-02-24 07:40:18 51°14.341 2°54.358 10.413371 3.690656 23.437099 -0.848668
2003-02-24 07:40:23 51°14.334 2°54.332 10.413371 3.690656 23.437099 -0.848668
2003-02-24 07:40:28 51°14.327 2°54.307 10.412066 3.690656 23.437099 -0.882377
2003-02-24 07:40:33 51°14.321 2°54.282 10.413511 3.69055 23.43704 -0.848668
2003-02-24 07:40:38 51°14.314 2°54.257 10.402091 3.690656 23.438464 -0.814958
2003-02-24 07:40:43 51°14.307 2°54.231 10.412858 3.69055 23.439429 -0.882377
2003-02-24 07:40:47 51°14.302 2°54.211 10.375003 3.690761 23.440911 -0.882377
2003-02-24 07:40:52 51°14.296 2°54.185 10.375003 3.690761 23.440911 -0.882377
2003-02-24 07:40:58 51°14.289 2°54.155 10.400879 3.690656 23.44017 -0.814958
2003-02-24 07:41:03 51°14.283 2°54.129 10.406706 3.690761 23.44057 -0.814958
2003-02-24 07:41:07 51°14.278 2°54.108 10.386847 3.690761 23.439205 -0.814958
2003-02-24 07:41:12 51°14.273 2°54.082 10.404236 3.690761 23.439205 -0.848668
2003-02-24 07:41:18 51°14.267 2°54.051 10.402091 3.690867 23.440287 -0.848668
2003-02-24 07:41:23 51°14.262 2°54.025 10.402091 3.690867 23.440287 -0.848668
2003-02-24 07:41:28 51°14.256 2°53.999 10.403397 3.690761 23.440229 -0.848668
2003-02-24 07:41:33 51°14.25 2°53.973 10.406333 3.690656 23.441194 -0.848668
2003-02-24 07:41:38 51°14.243 2°53.949 10.406986 3.691288 23.44769 -0.848668
2003-02-24 07:41:43 51°14.236 2°53.924 10.407405 3.690761 23.443984 -0.848668
2003-02-24 07:41:48 51°14.229 2°53.899 10.405354 3.690656 23.442901 -0.814958
2003-02-24 07:41:53 51°14.222 2°53.874 10.405354 3.690656 23.442901 -0.814958
2003-02-24 07:41:57 51°14.217 2°53.853 10.388432 3.690551 23.441136 -0.848668
2003-02-24 07:42:03 51°14.209 2°53.823 10.351075 3.690656 23.440853 -0.848668
2003-02-24 07:42:08 51°14.202 2°53.798 10.401672 3.690656 23.440853 -0.848668
2003-02-24 07:42:13 51°14.195 2°53.772 10.402791 3.690445 23.437664 -0.848668
2003-02-24 07:42:17 51°14.189 2°53.751 10.405261 3.690761 23.44057 -0.848668
2003-02-24 07:42:23 51°14.18 2°53.72 10.405261 3.690761 23.44057 -0.848668
2003-02-24 07:42:28 51°14.172 2°53.694 10.405354 3.690761 23.441253 -0.848668
2003-02-24 07:42:33 51°14.164 2°53.668 10.406986 3.690656 23.440512 -0.848668
2003-02-24 07:42:38 51°14.156 2°53.642 10.40857 3.690656 23.440512 -0.882377
2003-02-24 07:42:43 51°14.147 2°53.617 10.406333 3.691077 23.4445 -0.814958
2003-02-24 07:42:48 51°14.139 2°53.591 10.405774 3.690656 23.436416 -0.882377
2003-02-24 07:42:52 51°14.131 2°53.571 10.405774 3.690656 23.436416 -0.882377
2003-02-24 07:42:58 51°14.12 2°53.54 10.407778 3.690761 23.435451 -0.882377
2003-02-24 07:43:03 51°14.111 2°53.515 10.40913 3.690866 23.43551 -0.848668
2003-02-24 07:43:08 51°14.102 2°53.489 10.406986 3.690972 23.436251 -0.848668
2003-02-24 07:43:12 51°14.094 2°53.469 -999 3.690972 23.436251 -0.848668
2003-02-24 07:43:17 51°14.085 2°53.443 -999 3.690972 23.436592 -0.848668
2003-02-24 07:43:23 51°14.074 2°53.412 -999 3.690972 23.436592 -0.848668
2003-02-24 07:43:28 51°14.065 2°53.386 -999 3.691077 23.438015 -0.848668
2003-02-24 07:43:33 51°14.055 2°53.36 -999 3.691077 23.437674 -0.848668
2003-02-24 07:43:38 51°14.046 2°53.334 -999 3.691183 23.438415 -0.882377
2003-02-24 07:43:43 51°14.037 2°53.308 -999 3.691077 23.437674 -0.882377
2003-02-24 07:43:48 51°14.028 2°53.282 -999 3.691183 23.438415 -0.848668
2003-02-24 07:43:52 51°14.021 2°53.261 -999 3.691183 23.438415 -0.848668
2003-02-24 07:43:58 51°14.01 2°53.229 -999 3.691288 23.439497 -0.814958
2003-02-24 07:44:02 51°14.003 2°53.208 -999 3.691288 23.441545 -0.241899
2003-02-24 07:44:08 51°13.991 2°53.177 -999 3.529344 22.448892 -0.578993
2003-02-24 07:44:13 51°13.982 2°53.151 -999 3.612261 23.00968 0.803093
2003-02-24 07:44:18 51°13.973 2°53.125 -999 3.477651 23.577596 1.207606
2003-02-24 07:44:23 51°13.964 2°53.099 -999 3.477651 23.577596 1.207606
2003-02-24 07:44:28 51°13.954 2°53.073 -999 3.304125 25.200515 2.320016
2003-02-24 07:44:33 51°13.945 2°53.047 -999 3.320398 28.851344 5.421281
2003-02-24 07:44:38 51°13.935 2°53.022 -999 3.366872 31.346608 8.118033
2003-02-24 07:44:43 51°13.926 2°52.996 -999 3.24146 31.725984 9.095606
2003-02-24 07:44:48 51°13.916 2°52.97 -999 3.078482 30.827818 8.994477
2003-02-24 07:44:53 51°13.907 2°52.945 -999 3.078482 30.827818 8.994477
2003-02-24 07:44:58 51°13.897 2°52.919 -999 3.077752 31.462165 9.129315
2003-02-24 07:45:03 51°13.888 2°52.893 -999 2.991332 30.792948 9.061896
2003-02-24 07:45:08 51°13.878 2°52.867 -999 2.957865 30.667204 9.39899
2003-02-24 07:45:12 51°13.871 2°52.847 -999 2.938186 30.675306 9.533828
2003-02-24 07:45:18 51°13.859 2°52.816 -999 2.917981 30.579774 9.904631
2003-02-24 07:45:23 51°13.85 2°52.79 -999 2.917981 30.579774 9.904631
2003-02-24 07:45:28 51°13.84 2°52.764 -999 2.895671 30.400197 9.736084
2003-02-24 07:45:33 51°13.831 2°52.739 -999 2.886411 30.360771 9.264153
2003-02-24 07:45:38 51°13.821 2°52.713 -999 2.873153 30.263288 9.028187
2003-02-24 07:45:43 51°13.812 2°52.687 -999 2.863682 30.191634 8.758512
2003-02-24 07:45:48 51°13.803 2°52.661 -999 2.858947 30.171694 8.522546
2003-02-24 07:45:53 51°13.793 2°52.636 -999 2.858947 30.171694 8.522546
2003-02-24 07:45:58 51°13.784 2°52.61 -999 2.856001 30.180754 8.185452
2003-02-24 07:46:03 51°13.774 2°52.584 -999 2.849267 30.139094 7.882067
2003-02-24 07:46:08 51°13.765 2°52.558 -999 2.850425 30.173096 7.71352
2003-02-24 07:46:13 51°13.756 2°52.533 -999 2.846637 30.164156 7.780939
2003-02-24 07:46:18 51°13.746 2°52.507 -999 2.84327 30.137124 7.578683
2003-02-24 07:46:23 51°13.737 2°52.481 -999 2.84327 30.137124 7.578683
2003-02-24 07:46:28 51°13.728 2°52.456 -999 2.844007 30.165456 7.511264
2003-02-24 07:46:33 51°13.718 2°52.43 -999 2.850215 30.248797 7.646101
2003-02-24 07:46:37 51°13.711 2°52.409 -999 2.847059 30.229167 7.544973
2003-02-24 07:46:43 51°13.7 2°52.378 -999 2.841903 30.181984 7.544973
2003-02-24 07:46:48 51°13.69 2°52.352 -999 2.842955 30.200903 7.544973
2003-02-24 07:46:53 51°13.681 2°52.327 -999 2.842955 30.200903 7.544973
2003-02-24 07:46:58 51°13.671 2°52.301 -999 2.848532 30.272025 7.443845
2003-02-24 07:47:03 51°13.662 2°52.275 -999 2.846112 30.252753 7.74723
2003-02-24 07:47:08 51°13.653 2°52.249 -999 2.848111 30.281152 7.646101
2003-02-24 07:47:13 51°13.643 2°52.224 -999 2.847059 30.279572 7.71352
2003-02-24 07:47:18 51°13.634 2°52.198 -999 2.845797 30.269728 7.780939
2003-02-24 07:47:23 51°13.624 2°52.172 -999 2.845797 30.269728 7.780939
2003-02-24 07:47:28 51°13.615 2°52.147 -999 2.852321 30.357052 8.016905
2003-02-24 07:47:32 51°13.607 2°52.126 -999 2.851163 30.350938 7.983195
2003-02-24 07:47:38 51°13.596 2°52.095 -999 2.84485 30.280975 7.848358
2003-02-24 07:47:43 51°13.587 2°52.069 -999 2.850006 30.342331 7.646101
2003-02-24 07:47:48 51°13.577 2°52.044 -999 2.852426 30.379892 7.612392
2003-02-24 07:47:53 51°13.567 2°52.018 -999 2.852426 30.379892 7.612392
2003-02-24 07:47:58 51°13.558 2°51.992 -999 2.85432 30.406302 7.578683
2003-02-24 07:48:03 51°13.548 2°51.966 -999 2.85169 30.380388 7.477554
2003-02-24 07:48:08 51°13.539 2°51.941 -999 2.846955 30.325593 7.14046
2003-02-24 07:48:12 51°13.531 2°51.92 -999 2.849059 30.355301 7.14046
2003-02-24 07:48:18 51°13.52 2°51.889 -999 2.8539 30.413013 7.309007
2003-02-24 07:48:23 51°13.51 2°51.863 -999 2.854636 30.427504 7.106751
2003-02-24 07:48:27 51°13.503 2°51.843 -999 2.854636 30.427504 7.106751
2003-02-24 07:48:32 51°13.493 2°51.817 -999 2.854636 30.430838 7.309007
2003-02-24 07:48:37 51°13.483 2°51.791 -999 2.856636 30.460186 7.477554
2003-02-24 07:48:42 51°13.474 2°51.766 -999 2.850322 30.386782 7.443845
2003-02-24 07:48:48 51°13.462 2°51.735 -999 2.857477 30.470921 7.646101
2003-02-24 07:48:53 51°13.453 2°51.709 -999 2.857477 30.470921 7.646101
2003-02-24 07:48:58 51°13.444 2°51.683 -999 2.856741 30.461424 7.646101
2003-02-24 07:49:03 51°13.435 2°51.657 -999 2.85411 30.43883 7.780939
2003-02-24 07:49:08 51°13.425 2°51.631 -999 2.851374 30.407486 7.780939
2003-02-24 07:49:13 51°13.416 2°51.605 -999 2.856425 30.470236 7.646101
2003-02-24 07:49:18 51°13.407 2°51.579 -999 2.856425 30.474413 7.578683
2003-02-24 07:49:23 51°13.397 2°51.554 -999 2.856425 30.474413 7.578683
2003-02-24 07:49:27 51°13.39 2°51.533 -999 2.853795 30.447636 7.780939
2003-02-24 07:49:32 51°13.38 2°51.507 -999 2.860108 30.523611 7.882067
2003-02-24 07:49:37 51°13.371 2°51.481 -999 2.859161 30.509117 8.084324
2003-02-24 07:49:43 51°13.36 2°51.45 -999 2.858004 30.494658 8.118033
2003-02-24 07:49:48 51°13.351 2°51.424 -999 2.860214 30.52485 8.118033
2003-02-24 07:49:52 51°13.343 2°51.404 -999 2.860214 30.52485 8.118033
2003-02-24 07:49:58 51°13.332 2°51.373 -999 2.85853 30.503359 8.252871
2003-02-24 07:50:03 51°13.322 2°51.347 -999 2.861476 30.538876 8.219161
2003-02-24 07:50:08 51°13.313 2°51.321 -999 2.857162 30.491441 8.387708
2003-02-24 07:50:13 51°13.304 2°51.295 -999 2.862002 30.550934 8.252871
2003-02-24 07:50:18 51°13.294 2°51.269 -999 2.86295 30.566277 8.387708
2003-02-24 07:50:23 51°13.285 2°51.243 -999 2.86295 30.566277 8.387708
2003-02-24 07:50:28 51°13.275 2°51.218 -999 2.860214 30.536574 8.488836
2003-02-24 07:50:33 51°13.266 2°51.192 -999 2.866527 30.609253 8.455127
2003-02-24 07:50:38 51°13.257 2°51.166 -999 2.864844 30.59278 8.758512
2003-02-24 07:50:43 51°13.247 2°51.14 -999 2.864002 30.587061 8.85964
2003-02-24 07:50:48 51°13.238 2°51.114 -999 2.86095 30.551115 8.960768
2003-02-24 07:50:52 51°13.23 2°51.094 -999 2.86095 30.551115 8.960768
2003-02-24 07:50:57 51°13.221 2°51.068 -999 2.86537 30.605695 8.85964
2003-02-24 07:51:03 51°13.209 2°51.037 -999 2.861056 30.554031 8.960768
2003-02-24 07:51:08 51°13.2 2°51.011 -999 2.863792 30.640078 8.82593
2003-02-24 07:51:13 51°13.19 2°50.985 -999 2.861371 30.560266 9.028187
2003-02-24 07:51:18 51°13.181 2°50.96 -999 2.863686 30.586699 8.927059
2003-02-24 07:51:23 51°13.171 2°50.934 -999 2.863686 30.586699 8.927059
2003-02-24 07:51:28 51°13.162 2°50.908 -999 2.866948 30.624293 8.927059
2003-02-24 07:51:33 51°13.152 2°50.882 -999 2.86779 30.637575 8.960768
2003-02-24 07:51:38 51°13.143 2°50.856 -999 2.868211 30.644218 8.893349
2003-02-24 07:51:43 51°13.133 2°50.83 -999 2.866633 30.626457 8.994477
2003-02-24 07:51:47 51°13.126 2°50.809 -999 2.870316 30.672391 9.028187
2003-02-24 07:51:53 51°13.114 2°50.778 -999 2.870316 30.672391 9.028187
2003-02-24 07:51:58 51°13.105 2°50.752 -999 2.871473 30.682667 9.264153
2003-02-24 07:52:03 51°13.095 2°50.726 -999 2.868001 30.642579 9.365281
2003-02-24 07:52:08 51°13.086 2°50.7 -999 2.870421 30.673631 9.365281
2003-02-24 07:52:13 51°13.077 2°50.674 -999 2.868422 30.649222 9.264153
2003-02-24 07:52:18 51°13.067 2°50.648 -999 2.869264 30.659986 9.264153
2003-02-24 07:52:23 51°13.058 2°50.622 -999 2.869264 30.659986 9.264153
2003-02-24 07:52:28 51°13.048 2°50.596 -999 2.867475 30.640583 9.533828
2003-02-24 07:52:33 51°13.039 2°50.57 -999 2.86758 30.64603 9.601247
2003-02-24 07:52:38 51°13.029 2°50.544 -999 2.872105 30.701064 9.466409
2003-02-24 07:52:43 51°13.02 2°50.518 -999 2.867685 30.649796 9.533828
2003-02-24 07:52:48 51°13.011 2°50.492 -999 2.870632 30.685378 9.837212
2003-02-24 07:52:53 51°13.001 2°50.466 -999 2.870632 30.685378 9.837212
2003-02-24 07:52:58 51°12.992 2°50.44 -999 2.868211 30.660208 9.938341
2003-02-24 07:53:03 51°12.982 2°50.414 -999 2.870421 30.685424 10.005759
2003-02-24 07:53:08 51°12.973 2°50.388 -999 2.874315 30.729656 10.005759
2003-02-24 07:53:13 51°12.964 2°50.361 -999 2.873894 30.723847 10.073178
2003-02-24 07:53:18 51°12.954 2°50.335 -999 2.873894 30.728911 10.208016
2003-02-24 07:53:23 51°12.945 2°50.309 -999 2.873894 30.728911 10.208016
2003-02-24 07:53:28 51°12.935 2°50.283 -999 2.68967 28.564298 10.342853
2003-02-24 07:53:32 51°12.928 2°50.262 -999 2.878419 30.7806 10.713657
2003-02-24 07:53:37 51°12.918 2°50.236 -999 2.879997 30.798377 11.11817
2003-02-24 07:53:43 51°12.907 2°50.204 -999 2.882102 30.82067 11.219298
2003-02-24 07:53:48 51°12.898 2°50.178 -999 2.88347 30.836811 11.522683
2003-02-24 07:53:53 51°12.889 2°50.152 -999 2.88347 30.836811 11.522683
2003-02-24 07:53:57 51°12.881 2°50.131 -999 2.884943 30.853348 11.556392
2003-02-24 07:54:02 51°12.872 2°50.105 -999 2.886732 30.87361 11.488973
2003-02-24 07:54:08 51°12.861 2°50.074 -999 2.8881 30.891451 11.455264
2003-02-24 07:54:13 51°12.852 2°50.047 -999 2.889258 30.905113 11.354136
2003-02-24 07:54:17 51°12.844 2°50.027 -999 2.890205 30.914594 11.219298
2003-02-24 07:54:23 51°12.833 2°49.995 -999 2.890205 30.914594 11.219298
2003-02-24 07:54:28 51°12.823 2°49.97 -999 2.890731 30.922502 10.983332
2003-02-24 07:54:33 51°12.814 2°49.943 -999 2.889784 30.911323 10.747366
2003-02-24 07:54:38 51°12.805 2°49.917 -999 2.890205 30.916292 10.612529
2003-02-24 07:54:43 51°12.796 2°49.892 -999 2.890836 30.923744 10.882204
2003-02-24 07:54:48 51°12.786 2°49.866 -999 2.891678 30.93878 10.949623
2003-02-24 07:54:52 51°12.779 2°49.845 -999 2.891678 30.93878 10.949623
2003-02-24 07:54:58 51°12.767 2°49.814 -999 2.892204 30.947542 11.11817
2003-02-24 07:55:03 51°12.758 2°49.788 -999 2.893046 30.957482 11.219298
2003-02-24 07:55:08 51°12.749 2°49.762 -999 2.894309 30.973245 11.320426
2003-02-24 07:55:13 51°12.74 2°49.736 -999 2.895151 30.981484 11.253007
2003-02-24 07:55:18 51°12.731 2°49.71 -999 2.896203 30.992209 11.320426
2003-02-24 07:55:23 51°12.721 2°49.684 -999 2.896203 30.992209 11.320426
2003-02-24 07:55:28 51°12.712 2°49.659 -999 2.897677 31.009607 11.286717
2003-02-24 07:55:33 51°12.702 2°49.633 -999 2.898729 31.022887 11.151879
2003-02-24 07:55:38 51°12.693 2°49.607 -999 2.899676 31.032369 11.08446
2003-02-24 07:55:43 51°12.684 2°49.581 -999 2.901149 31.048064 10.983332
2003-02-24 07:55:48 51°12.675 2°49.555 -999 2.901991 31.058008 10.882204
2003-02-24 07:55:52 51°12.667 2°49.535 -999 2.901991 31.058008 10.882204
2003-02-24 07:55:58 51°12.656 2°49.503 -999 2.902939 31.069195 10.646238
2003-02-24 07:56:03 51°12.647 2°49.478 -999 2.904728 31.092035 10.679947
2003-02-24 07:56:07 51°12.639 2°49.457 -999 2.905569 31.101126 10.140597
2003-02-24 07:56:13 51°12.628 2°49.426 -999 2.906517 31.111461 10.073178
2003-02-24 07:56:18 51°12.619 2°49.4 -999 2.907569 31.123894 9.803503
2003-02-24 07:56:23 51°12.609 2°49.374 -999 2.907569 31.123894 9.803503
2003-02-24 07:56:28 51°12.6 2°49.348 -999 2.907779 31.129801 9.702375
2003-02-24 07:56:33 51°12.591 2°49.322 -999 2.909568 31.145807 9.634956
2003-02-24 07:56:38 51°12.581 2°49.296 -999 2.909253 31.146354 9.668665
2003-02-24 07:56:43 51°12.572 2°49.27 -999 2.910305 31.160502 9.634956
2003-02-24 07:56:48 51°12.563 2°49.244 -999 2.910831 31.164152 9.601247
2003-02-24 07:56:53 51°12.553 2°49.218 -999 2.910831 31.164152 9.601247
2003-02-24 07:56:58 51°12.543 2°49.192 -999 2.911147 31.166171 9.938341
2003-02-24 07:57:03 51°12.534 2°49.166 -999 2.912094 31.176506 10.241725
2003-02-24 07:57:08 51°12.525 2°49.14 -999 2.913041 31.186842 10.679947
2003-02-24 07:57:13 51°12.515 2°49.114 -999 2.913252 31.191043 10.713657
2003-02-24 07:57:18 51°12.506 2°49.088 -999 2.911673 31.168964 10.848494
2003-02-24 07:57:23 51°12.496 2°49.062 -999 2.911673 31.168964 10.848494
2003-02-24 07:57:28 51°12.487 2°49.036 -999 2.914936 31.210085 11.08446
2003-02-24 07:57:33 51°12.478 2°49.01 -999 2.915357 31.211631 11.08446
2003-02-24 07:57:38 51°12.468 2°48.984 -999 2.915778 31.216606 10.983332
2003-02-24 07:57:43 51°12.459 2°48.958 -999 2.916199 31.224153 10.882204
2003-02-24 07:57:48 51°12.449 2°48.932 -999 2.91462 31.205497 11.017042
2003-02-24 07:57:53 51°12.44 2°48.906 -999 2.91462 31.205497 11.017042
2003-02-24 07:57:58 51°12.43 2°48.88 -999 2.912936 31.183886 10.814785
2003-02-24 07:58:03 51°12.421 2°48.854 -999 2.915462 31.213732 10.646238
2003-02-24 07:58:07 51°12.413 2°48.834 -999 2.918619 31.251904 10.646238
2003-02-24 07:58:12 51°12.404 2°48.807 -999 2.916725 31.226084 10.612529
2003-02-24 07:58:18 51°12.393 2°48.776 -999 2.920093 31.270178 10.477691
2003-02-24 07:58:23 51°12.383 2°48.75 -999 2.920093 31.270178 10.477691
2003-02-24 07:58:28 51°12.374 2°48.724 -999 2.921145 31.280901 10.443982
2003-02-24 07:58:33 51°12.364 2°48.698 -999 2.919566 31.262241 10.747366
2003-02-24 07:58:38 51°12.355 2°48.672 -999 2.921987 31.289135 11.050751
2003-02-24 07:58:43 51°12.345 2°48.645 -999 2.922303 31.28943 11.050751
2003-02-24 07:58:48 51°12.336 2°48.619 -999 2.923565 31.303498 11.11817
2003-02-24 07:58:53 51°12.327 2°48.593 -999 2.923565 31.303498 11.11817
2003-02-24 07:58:58 51°12.318 2°48.566 -999 2.922513 31.287622 11.017042
2003-02-24 07:59:03 51°12.309 2°48.539 -999 2.922934 31.294316 11.017042
2003-02-24 07:59:08 51°12.3 2°48.512 -999 2.925881 31.329146 11.455264
2003-02-24 07:59:13 51°12.292 2°48.485 -999 2.926196 31.332018 11.219298
2003-02-24 07:59:18 51°12.283 2°48.458 -999 2.927144 31.344075 11.08446
2003-02-24 07:59:23 51°12.275 2°48.431 -999 2.927144 31.344075 11.08446
2003-02-24 07:59:28 51°12.267 2°48.404 -999 2.926302 31.332402 11.151879
2003-02-24 07:59:33 51°12.258 2°48.376 -999 2.928196 31.353934 11.151879
2003-02-24 07:59:38 51°12.25 2°48.349 -999 2.927459 31.344365 11.253007
2003-02-24 07:59:43 51°12.241 2°48.322 -999 2.92788 31.345899 11.320426
2003-02-24 07:59:48 51°12.232 2°48.295 -999 2.92988 31.367812 11.556392
2003-02-24 07:59:53 51°12.224 2°48.268 -999 2.92988 31.367812 11.556392
2003-02-24 07:59:58 51°12.216 2°48.241 -999 2.929459 31.361976 11.960905
2003-02-24 08:00:03 51°12.207 2°48.213 -999 2.931985 31.389246 12.297999
2003-02-24 08:00:08 51°12.198 2°48.186 -999 2.932195 31.387427 12.533965
2003-02-24 08:00:13 51°12.19 2°48.159 -999 2.935879 31.429239 12.466546
2003-02-24 08:00:18 51°12.182 2°48.132 -999 2.935458 31.419952 12.601383
2003-02-24 08:00:23 51°12.173 2°48.105 -999 2.935458 31.419952 12.601383
2003-02-24 08:00:28 51°12.165 2°48.078 -999 2.937142 31.437266 12.500255
2003-02-24 08:00:33 51°12.156 2°48.05 -999 2.937036 31.432573 12.702512
2003-02-24 08:00:38 51°12.148 2°48.023 -999 2.937562 31.438791 12.500255
2003-02-24 08:00:43 51°12.139 2°47.996 -999 2.937247 31.43506 12.466546
2003-02-24 08:00:48 51°12.13 2°47.969 -999 2.937983 31.443766 12.399127
2003-02-24 08:00:53 51°12.122 2°47.942 -999 2.937983 31.443766 12.399127
2003-02-24 08:00:58 51°12.113 2°47.915 -999 2.938089 31.443284 12.500255
2003-02-24 08:01:03 51°12.105 2°47.887 -999 2.941246 31.480596 12.736221
2003-02-24 08:01:08 51°12.096 2°47.86 -999 2.939246 31.455239 12.702512
2003-02-24 08:01:13 51°12.087 2°47.833 -999 2.916724 31.188402 12.702512
2003-02-24 08:01:18 51°12.079 2°47.806 -999 2.942088 31.488819 12.399127
2003-02-24 08:01:23 51°12.07 2°47.779 -999 2.942088 31.488819 12.399127
2003-02-24 08:01:28 51°12.062 2°47.752 -999 2.942193 31.487472 12.196871
2003-02-24 08:01:33 51°12.053 2°47.724 -999 2.942614 31.491583 11.792358
2003-02-24 08:01:38 51°12.044 2°47.697 -999 2.944088 31.50986 11.960905
2003-02-24 08:01:43 51°12.036 2°47.67 -999 2.944509 31.5157 11.893486
2003-02-24 08:01:48 51°12.027 2°47.643 -999 2.94493 31.52154 11.826067
2003-02-24 08:01:53 51°12.019 2°47.616 -999 2.94493 31.52154 11.826067
2003-02-24 08:01:57 51°12.012 2°47.594 -999 2.946614 31.539714 11.522683
2003-02-24 08:02:03 51°12 2°47.561 -999 2.947666 31.552154 11.354136
2003-02-24 08:02:08 51°11.991 2°47.533 -999 2.948298 31.559619 11.11817
2003-02-24 08:02:13 51°11.984 2°47.507 -999 2.948403 31.556536 10.983332
2003-02-24 08:02:17 51°11.977 2°47.486 -999 2.950297 31.578062 10.848494
2003-02-24 08:02:23 51°11.967 2°47.453 -999 2.950297 31.578062 10.848494
2003-02-24 08:02:28 51°11.958 2°47.426 -999 2.950929 31.583794 10.679947
2003-02-24 08:02:33 51°11.95 2°47.398 -999 2.952192 31.600455 10.5114
2003-02-24 08:02:37 51°11.943 2°47.376 -999 2.952507 31.600721 10.376563
2003-02-24 08:02:42 51°11.934 2°47.349 -999 2.95356 31.613162 10.275435
2003-02-24 08:02:47 51°11.925 2°47.321 -999 2.954191 31.620627 10.309144
2003-02-24 08:02:52 51°11.916 2°47.294 -999 2.954191 31.620627 10.309144
2003-02-24 08:02:57 51°11.907 2°47.266 -999 2.954191 31.617159 9.97205
2003-02-24 08:03:02 51°11.899 2°47.239 -999 2.954507 31.620891 10.140597
2003-02-24 08:03:07 51°11.89 2°47.211 -999 2.95577 31.633218 10.073178
2003-02-24 08:03:12 51°11.881 2°47.184 -999 2.955665 31.629373 10.241725
2003-02-24 08:03:17 51°11.872 2°47.156 -999 2.957664 31.653008 10.713657
2003-02-24 08:03:22 51°11.864 2°47.129 -999 2.957664 31.653008 10.713657
2003-02-24 08:03:27 51°11.855 2°47.102 -999 2.957664 31.650405 10.781076
2003-02-24 08:03:31 51°11.849 2°47.079 -999 2.960085 31.674676 11.017042
2003-02-24 08:03:36 51°11.843 2°47.055 -999 2.961453 31.688242 11.08446
2003-02-24 08:03:41 51°11.834 2°47.028 -999 2.962085 31.692232 11.050751
2003-02-24 08:03:46 51°11.826 2°47.001 -999 2.963979 31.712883 11.219298
2003-02-24 08:03:51 51°11.817 2°46.974 -999 2.963979 31.712883 11.219298
2003-02-24 08:03:56 51°11.808 2°46.946 -999 2.966084 31.733414 10.915913
2003-02-24 08:04:01 51°11.8 2°46.92 -999 2.965979 31.727825 10.848494
2003-02-24 08:04:05 51°11.793 2°46.898 -999 2.967979 31.746238 10.646238
2003-02-24 08:04:11 51°11.783 2°46.865 -999 2.9684 31.750342 10.342853
2003-02-24 08:04:15 51°11.775 2°46.842 -999 2.968821 31.752708 10.241725
2003-02-24 08:04:20 51°11.766 2°46.815 -999 2.968821 31.752708 10.241725
2003-02-24 08:04:25 51°11.757 2°46.787 -999 2.969452 31.75843 9.97205
2003-02-24 08:04:30 51°11.749 2°46.76 -999 2.969663 31.759177 10.140597
2003-02-24 08:04:35 51°11.74 2°46.733 -999 2.971347 31.778202 9.870922
2003-02-24 08:04:40 51°11.731 2°46.706 -999 2.970399 31.767011 9.870922
2003-02-24 08:04:45 51°11.723 2°46.678 -999 2.972504 31.79188 9.803503
2003-02-24 08:04:50 51°11.714 2°46.651 -999 2.972504 31.79188 9.803503
2003-02-24 08:04:55 51°11.705 2°46.624 -999 2.973452 31.801331 9.668665
2003-02-24 08:05:00 51°11.697 2°46.596 -999 2.97282 31.792129 9.702375
2003-02-24 08:05:05 51°11.688 2°46.569 -999 2.973346 31.798347 9.533828
2003-02-24 08:05:10 51°11.68 2°46.542 -999 2.974715 31.811899 9.4327
2003-02-24 08:05:15 51°11.671 2°46.515 -999 2.974083 31.804439 9.567537
2003-02-24 08:05:20 51°11.663 2°46.487 -999 2.974083 31.804439 9.567537
2003-02-24 08:05:25 51°11.655 2°46.46 -999 2.975241 31.815504 9.634956
2003-02-24 08:05:30 51°11.647 2°46.432 -999 2.975872 31.824706 9.668665
2003-02-24 08:05:35 51°11.64 2°46.404 -999 2.97703 31.83577 9.736084
2003-02-24 08:05:40 51°11.632 2°46.376 -999 2.978083 31.84559 9.331571
2003-02-24 08:05:45 51°11.625 2°46.348 -999 2.978504 31.851435 9.601247
2003-02-24 08:05:50 51°11.618 2°46.32 -999 2.978504 31.851435 9.601247
2003-02-24 08:05:55 51°11.611 2°46.291 -999 2.977767 31.840117 9.297862
2003-02-24 08:06:00 51°11.604 2°46.263 -999 2.979661 31.860754 9.466409
2003-02-24 08:06:05 51°11.598 2°46.234 -999 2.980819 31.872687 9.466409
2003-02-24 08:06:10 51°11.591 2°46.206 -999 2.980609 31.8702 9.533828
2003-02-24 08:06:15 51°11.584 2°46.178 -999 2.981346 31.877159 9.668665
2003-02-24 08:06:20 51°11.577 2°46.149 -999 2.981346 31.877159 9.668665
2003-02-24 08:06:25 51°11.571 2°46.12 -999 2.981661 31.880889 9.634956
2003-02-24 08:06:30 51°11.564 2°46.092 -999 2.980924 31.870442 9.837212
2003-02-24 08:06:35 51°11.557 2°46.063 -999 2.98324 31.89605 10.106888
2003-02-24 08:06:40 51°11.55 2°46.035 -999 2.983556 31.899779 10.140597
2003-02-24 08:06:45 51°11.544 2°46.006 -999 2.984714 31.913457 10.275435
2003-02-24 08:06:50 51°11.537 2°45.978 -999 2.984714 31.913457 10.275435
2003-02-24 08:06:55 51°11.53 2°45.95 -999 2.984819 31.913827 10.342853
2003-02-24 08:07:00 51°11.524 2°45.922 -999 2.985345 31.918297 10.309144
2003-02-24 08:07:05 51°11.517 2°45.894 -999 2.98545 31.920414 10.5114
2003-02-24 08:07:10 51°11.51 2°45.865 -999 2.985556 31.919911 10.679947
2003-02-24 08:07:15 51°11.503 2°45.837 -999 2.983977 31.901262 10.679947
2003-02-24 08:07:20 51°11.496 2°45.808 -999 2.983977 31.901262 10.679947
2003-02-24 08:07:25 51°11.489 2°45.78 -999 2.987029 31.938192 10.915913
2003-02-24 08:07:30 51°11.482 2°45.751 -999 2.987029 31.934697 10.713657
2003-02-24 08:07:35 51°11.476 2°45.722 -999 2.98724 31.938058 10.814785
2003-02-24 08:07:40 51°11.469 2°45.694 -999 2.985661 31.916789 10.713657
2003-02-24 08:07:45 51°11.462 2°45.666 -999 2.987029 31.93295 10.713657
2003-02-24 08:07:50 51°11.455 2°45.637 -999 2.987029 31.93295 10.713657
2003-02-24 08:07:55 51°11.448 2°45.609 -999 2.986819 31.928717 10.646238
2003-02-24 08:08:00 51°11.441 2°45.581 -999 2.98945 31.958924 10.814785
2003-02-24 08:08:05 51°11.433 2°45.553 -999 2.98945 31.957176 10.713657
2003-02-24 08:08:10 51°11.426 2°45.525 -999 2.991345 31.976932 10.915913
2003-02-24 08:08:15 51°11.419 2°45.497 -999 2.991871 31.984023 10.983332
2003-02-24 08:08:20 51°11.412 2°45.469 -999 2.991871 31.984023 10.983332
2003-02-24 08:08:25 51°11.405 2°45.441 -999 2.992187 31.986004 11.050751
2003-02-24 08:08:30 51°11.398 2°45.413 -999 2.990818 31.968093 11.050751
2003-02-24 08:08:35 51°11.391 2°45.384 -999 2.992187 31.982505 11.017042
2003-02-24 08:08:40 51°11.384 2°45.356 -999 2.993555 31.998667 11.017042
2003-02-24 08:08:45 51°11.377 2°45.328 -999 2.993344 31.993556 11.050751
2003-02-24 08:08:50 51°11.369 2°45.3 -999 2.993344 31.993556 11.050751
2003-02-24 08:08:55 51°11.362 2°45.271 -999 2.994292 32.004744 11.050751
2003-02-24 08:09:00 51°11.355 2°45.243 -999 2.994923 32.009578 11.08446
2003-02-24 08:09:05 51°11.348 2°45.215 -999 2.993976 31.997516 11.151879
2003-02-24 08:09:10 51°11.341 2°45.186 -999 2.994502 32.002856 11.050751
2003-02-24 08:09:15 51°11.334 2°45.158 -999 2.994923 32.007828 11.11817
2003-02-24 08:09:20 51°11.327 2°45.13 -999 2.994923 32.007828 11.11817
2003-02-24 08:09:25 51°11.32 2°45.102 -999 2.996186 32.02362 11.151879
2003-02-24 08:09:30 51°11.312 2°45.074 -999 2.995976 32.022009 11.11817
2003-02-24 08:09:35 51°11.305 2°45.045 -999 2.996186 32.021869 11.050751
2003-02-24 08:09:39 51°11.299 2°45.022 -999 2.996818 32.029328 11.050751
2003-02-24 08:09:45 51°11.291 2°44.988 -999 2.996923 32.030571 11.050751
2003-02-24 08:09:50 51°11.284 2°44.96 -999 2.996923 32.030571 11.050751
2003-02-24 08:09:55 51°11.277 2°44.932 -999 2.996818 32.029328 10.983332
2003-02-24 08:10:00 51°11.269 2°44.904 -999 2.996923 32.030571 11.219298
2003-02-24 08:10:05 51°11.262 2°44.875 -999 2.997555 32.039781 11.08446
2003-02-24 08:10:10 51°11.255 2°44.847 -999 2.996818 32.028452 10.983332
2003-02-24 08:10:15 51°11.248 2°44.819 -999 2.996713 32.028085 11.11817
2003-02-24 08:10:19 51°11.242 2°44.796 -999 2.996713 32.028085 11.11817
2003-02-24 08:10:25 51°11.234 2°44.762 -999 2.996502 32.025599 11.151879
2003-02-24 08:10:30 51°11.227 2°44.734 -999 2.99766 32.038397 11.455264
2003-02-24 08:10:35 51°11.22 2°44.706 -999 2.998607 32.049586 11.354136
2003-02-24 08:10:40 51°11.212 2°44.677 -999 2.999133 32.053173 11.253007
2003-02-24 08:10:45 51°11.205 2°44.649 -999 2.999239 32.051788 11.286717
2003-02-24 08:10:50 51°11.198 2°44.621 -999 2.999239 32.051788 11.286717
2003-02-24 08:10:55 51°11.19 2°44.593 -999 3.000081 32.060857 11.320426
2003-02-24 08:11:00 51°11.183 2°44.563 -999 3.001449 32.077893 11.488973
2003-02-24 08:11:05 51°11.175 2°44.534 -999 3.001133 32.072411 11.354136
2003-02-24 08:11:10 51°11.168 2°44.506 -999 3.000502 32.066705 11.522683
2003-02-24 08:11:15 51°11.161 2°44.477 -999 3.001554 32.077383 11.320426
2003-02-24 08:11:20 51°11.154 2°44.449 -999 3.001554 32.077383 11.320426
2003-02-24 08:11:25 51°11.146 2°44.421 -999 3.001028 32.071168 11.185589
2003-02-24 08:11:30 51°11.139 2°44.393 -999 3.002186 32.084842 11.11817
2003-02-24 08:11:35 51°11.132 2°44.365 -999 3.002396 32.087328 10.949623
2003-02-24 08:11:40 51°11.124 2°44.337 -999 3.003028 32.095665 11.08446
2003-02-24 08:11:45 51°11.117 2°44.308 -999 3.00387 32.102101 10.915913
2003-02-24 08:11:50 51°11.11 2°44.28 -999 3.00387 32.102101 10.915913
2003-02-24 08:11:55 51°11.103 2°44.252 -999 3.005449 32.120749 10.983332
2003-02-24 08:12:00 51°11.096 2°44.223 -999 3.006607 32.133547 11.08446
2003-02-24 08:12:05 51°11.088 2°44.195 -999 3.007133 32.138008 11.219298
2003-02-24 08:12:10 51°11.081 2°44.167 -999 3.006817 32.130766 11.387845
2003-02-24 08:12:15 51°11.074 2°44.138 -999 3.01008 32.16579 11.65752
2003-02-24 08:12:20 51°11.067 2°44.109 -999 3.01008 32.16579 11.65752
2003-02-24 08:12:25 51°11.059 2°44.081 -999 3.009133 32.152846 11.623811
2003-02-24 08:12:30 51°11.052 2°44.053 -999 3.011238 32.176829 11.65752
2003-02-24 08:12:35 51°11.045 2°44.024 -999 3.010712 32.169734 11.185589
2003-02-24 08:12:40 51°11.038 2°43.996 -999 3.011449 32.176678 11.219298
2003-02-24 08:12:45 51°11.031 2°43.968 -999 3.012185 32.18538 11.151879
2003-02-24 08:12:50 51°11.024 2°43.939 -999 3.012185 32.18538 11.151879
2003-02-24 08:12:55 51°11.016 2°43.911 -999 3.010817 32.168342 11.11817
2003-02-24 08:13:00 51°11.009 2°43.883 -999 3.010817 32.165706 11.08446
2003-02-24 08:13:05 51°11.002 2°43.854 -999 3.014291 32.206724 11.08446
2003-02-24 08:13:10 51°10.995 2°43.826 -999 3.014396 32.208847 11.08446
2003-02-24 08:13:15 51°10.988 2°43.798 -999 3.014922 32.214183 11.017042
2003-02-24 08:13:20 51°10.98 2°43.769 -999 3.014922 32.214183 11.017042
2003-02-24 08:13:25 51°10.973 2°43.741 -999 3.015343 32.219156 10.983332
2003-02-24 08:13:30 51°10.966 2°43.713 -999 3.015027 32.214546 10.983332
2003-02-24 08:13:35 51°10.959 2°43.684 -999 3.015448 32.218639 10.882204
2003-02-24 08:13:40 51°10.951 2°43.656 -999 3.016185 32.227341 10.814785
2003-02-24 08:13:45 51°10.944 2°43.627 -999 3.015975 32.224855 10.814785
2003-02-24 08:13:50 51°10.936 2°43.599 -999 3.015975 32.224855 10.814785
2003-02-24 08:13:55 51°10.929 2°43.57 -999 3.016396 32.228947 10.612529
2003-02-24 08:14:00 51°10.922 2°43.542 -999 3.017027 32.235526 10.443982
2003-02-24 08:14:05 51°10.915 2°43.513 7.087755 3.017554 32.240861 10.5114
2003-02-24 08:14:10 51°10.907 2°43.485 7.208249 3.017554 32.242622 10.309144
2003-02-24 08:14:15 51°10.9 2°43.458 7.447923 3.017869 32.247232 10.54511
2003-02-24 08:14:20 51°10.893 2°43.43 7.447923 3.017869 32.247232 10.54511
2003-02-24 08:14:25 51°10.886 2°43.401 7.43182 3.017343 32.240135 10.477691
2003-02-24 08:14:30 51°10.879 2°43.373 7.08486 3.018606 32.254173 10.814785
2003-02-24 08:14:35 51°10.872 2°43.344 7.607906 3.019027 32.253862 12.365418
2003-02-24 08:14:40 51°10.865 2°43.316 7.564332 3.019027 32.247699 11.286717
2003-02-24 08:14:45 51°10.857 2°43.288 7.247711 3.020817 32.265305 10.983332
2003-02-24 08:14:50 51°10.85 2°43.259 7.247711 3.020817 32.265305 10.983332
2003-02-24 08:14:55 51°10.843 2°43.231 7.726648 3.02229 32.282704 10.915913
2003-02-24 08:14:59 51°10.837 2°43.209 7.966378 3.021764 32.280014 10.882204
2003-02-24 08:15:05 51°10.829 2°43.175 7.168469 3.021764 32.280895 10.713657
2003-02-24 08:15:10 51°10.821 2°43.146 7.326659 3.023027 32.296694 10.983332
2003-02-24 08:15:15 51°10.814 2°43.118 7.770112 3.023027 32.296694 10.915913
2003-02-24 08:15:20 51°10.807 2°43.089 7.770112 3.023027 32.296694 10.915913
2003-02-24 08:15:25 51°10.8 2°43.061 7.6515 3.023448 32.301666 11.017042
2003-02-24 08:15:30 51°10.793 2°43.033 7.087559 3.022817 32.295971 11.185589
2003-02-24 08:15:35 51°10.786 2°43.005 6.928726 3.023132 32.297937 10.949623
2003-02-24 08:15:40 51°10.778 2°42.977 7.009887 3.022711 32.294728 11.017042
2003-02-24 08:15:45 51°10.771 2°42.948 7.213147 3.022922 32.296332 11.11817
2003-02-24 08:15:50 51°10.764 2°42.92 7.213147 3.022922 32.296332 11.11817
2003-02-24 08:15:55 51°10.757 2°42.892 7.531449 3.023027 32.296694 11.219298
2003-02-24 08:16:00 51°10.75 2°42.864 7.214322 3.022711 32.293846 11.185589
2003-02-24 08:16:05 51°10.743 2°42.835 7.455144 3.022606 32.291721 11.050751
2003-02-24 08:16:10 51°10.735 2°42.807 7.609902 3.023553 32.302028 11.253007
2003-02-24 08:16:15 51°10.728 2°42.779 6.964871 3.024185 32.307723 11.253007
2003-02-24 08:16:20 51°10.721 2°42.75 6.964871 3.024185 32.307723 11.253007
2003-02-24 08:16:25 51°10.714 2°42.722 7.013621 3.022606 32.29084 11.185589
2003-02-24 08:16:30 51°10.707 2°42.694 7.492162 3.02408 32.305598 11.488973
2003-02-24 08:16:35 51°10.7 2°42.666 7.131165 3.02429 32.308966 11.488973
2003-02-24 08:16:40 51°10.692 2°42.638 6.729837 3.024606 32.312695 11.522683
2003-02-24 08:16:45 51°10.685 2°42.609 7.016814 3.025553 32.324766 11.724939
2003-02-24 08:16:50 51°10.677 2°42.581 7.016814 3.025553 32.324766 11.724939
2003-02-24 08:16:55 51°10.67 2°42.553 6.533293 3.024711 32.313938 11.455264
2003-02-24 08:17:00 51°10.663 2°42.525 7.587023 3.025975 32.327974 11.623811
2003-02-24 08:17:05 51°10.656 2°42.496 7.433626 3.02629 32.333469 11.792358
2003-02-24 08:17:10 51°10.648 2°42.468 7.638901 3.025869 32.326731 11.556392
2003-02-24 08:17:15 51°10.641 2°42.44 7.121456 3.027343 32.343253 11.354136
2003-02-24 08:17:20 51°10.634 2°42.412 7.121456 3.027343 32.343253 11.354136
2003-02-24 08:17:25 51°10.627 2°42.384 6.755096 3.028396 32.35392 11.792358
2003-02-24 08:17:30 51°10.62 2°42.355 6.881191 3.02808 32.349307 12.567674
2003-02-24 08:17:35 51°10.613 2°42.327 6.919625 3.030185 32.367988 13.140734
2003-02-24 08:17:40 51°10.605 2°42.299 7.321526 3.032501 32.390034 13.444118
2003-02-24 08:17:45 51°10.598 2°42.271 7.559364 3.03229 32.383131 13.309281
2003-02-24 08:17:50 51°10.591 2°42.243 7.559364 3.03229 32.383131 13.309281
2003-02-24 08:17:55 51°10.584 2°42.215 7.278343 3.035132 32.414921 13.208153
2003-02-24 08:18:00 51°10.576 2°42.186 6.555266 3.035659 32.415831 13.241862
2003-02-24 08:18:05 51°10.569 2°42.158 6.758154 3.036501 32.425773 13.174443
2003-02-24 08:18:10 51°10.562 2°42.13 7.520338 3.037132 32.432346 13.140734
2003-02-24 08:18:15 51°10.554 2°42.102 7.480215 3.036817 32.428617 13.107024
2003-02-24 08:18:20 51°10.547 2°42.074 7.480215 3.036817 32.428617 13.107024
2003-02-24 08:18:25 51°10.54 2°42.046 6.954152 3.038395 32.445491 12.938477
2003-02-24 08:18:30 51°10.533 2°42.017 7.517219 3.038711 32.451874 13.107024
2003-02-24 08:18:35 51°10.525 2°41.989 6.955775 3.03829 32.446902 13.107024
2003-02-24 08:18:40 51°10.518 2°41.961 6.790796 3.03808 32.445301 12.938477
2003-02-24 08:18:45 51°10.511 2°41.933 7.395402 3.037027 32.432872 12.567674
2003-02-24 08:18:50 51°10.504 2°41.904 7.395402 3.037027 32.432872 12.567674
2003-02-24 08:18:55 51°10.497 2°41.876 7.551473 3.038185 32.447429 12.466546
2003-02-24 08:19:00 51°10.489 2°41.848 6.669115 3.038922 32.45613 12.399127
2003-02-24 08:19:05 51°10.482 2°41.819 6.914263 3.037869 32.442815 12.264289
2003-02-24 08:19:10 51°10.475 2°41.791 7.036656 3.037869 32.444585 12.365418
2003-02-24 08:19:15 51°10.468 2°41.763 7.115571 3.03829 32.451327 12.297999
2003-02-24 08:19:20 51°10.461 2°41.734 7.115571 3.03829 32.451327 12.297999
2003-02-24 08:19:25 51°10.454 2°41.706 7.15455 3.038185 32.450084 12.365418
2003-02-24 08:19:30 51°10.447 2°41.677 7.194339 3.038185 32.450969 12.264289
2003-02-24 08:19:35 51°10.439 2°41.649 6.672029 3.038185 32.450969 12.399127
2003-02-24 08:19:40 51°10.432 2°41.62 7.274625 3.038185 32.450969 13.039606
2003-02-24 08:19:45 51°10.425 2°41.592 6.911655 3.038501 32.452043 13.005896
2003-02-24 08:19:50 51°10.418 2°41.563 6.911655 3.038501 32.452043 13.005896
2003-02-24 08:19:55 51°10.411 2°41.534 7.351976 3.03808 32.448841 12.837349
2003-02-24 08:20:00 51°10.404 2°41.505 6.875284 3.03829 32.453098 13.140734
2003-02-24 08:20:05 51°10.396 2°41.477 6.794346 3.038711 32.4563 13.140734
2003-02-24 08:20:10 51°10.389 2°41.448 7.115227 3.03808 32.450611 13.208153
2003-02-24 08:20:15 51°10.382 2°41.42 6.836182 3.037869 32.44724 13.005896
2003-02-24 08:20:20 51°10.375 2°41.391 6.836182 3.037869 32.44724 13.005896
2003-02-24 08:20:25 51°10.368 2°41.363 6.956365 3.03829 32.451327 12.904768
2003-02-24 08:20:30 51°10.36 2°41.334 7.294729 3.037448 32.443153 13.039606
2003-02-24 08:20:35 51°10.353 2°41.306 6.797352 3.037974 32.448483 13.174443
2003-02-24 08:20:40 51°10.346 2°41.277 6.758795 3.037027 32.436411 13.275571
2003-02-24 08:20:45 51°10.339 2°41.249 7.085695 3.039027 32.460029 13.444118
2003-02-24 08:20:50 51°10.331 2°41.22 7.085695 3.039027 32.460029 13.444118
2003-02-24 08:20:55 51°10.324 2°41.191 7.207906 3.038922 32.457901 13.34299
2003-02-24 08:21:00 51°10.317 2°41.163 6.76496 3.038501 32.452043 13.241862
2003-02-24 08:21:05 51°10.309 2°41.134 6.685906 3.038817 32.454002 13.34299
2003-02-24 08:21:10 51°10.302 2°41.106 6.649603 3.04008 32.468033 13.241862
2003-02-24 08:21:15 51°10.295 2°41.077 6.546359 3.040501 32.471234 12.837349
2003-02-24 08:21:20 51°10.288 2°41.049 6.546359 3.040501 32.471234 12.837349
2003-02-24 08:21:25 51°10.28 2°41.02 6.81608 3.041553 32.481893 12.736221
2003-02-24 08:21:30 51°10.273 2°40.991 7.420106 3.042922 32.494508 12.736221
2003-02-24 08:21:35 51°10.266 2°40.962 6.453703 3.043764 32.50268 12.80364
2003-02-24 08:21:40 51°10.259 2°40.934 7.223332 3.043764 32.501793 12.736221
2003-02-24 08:21:45 51°10.252 2°40.905 7.020694 3.044396 32.508365 12.533965
2003-02-24 08:21:50 51°10.245 2°40.877 7.020694 3.044396 32.508365 12.533965
2003-02-24 08:21:55 51°10.237 2°40.848 7.225388 3.045975 32.524349 12.331708
2003-02-24 08:22:00 51°10.23 2°40.82 7.429331 3.04608 32.523818 12.399127
2003-02-24 08:22:05 51°10.223 2°40.791 6.703778 3.046185 32.523288 12.264289
2003-02-24 08:22:10 51°10.216 2°40.762 6.747401 3.04629 32.522758 12.297999
2003-02-24 08:22:15 51°10.209 2°40.733 6.74888 3.047554 32.536784 12.331708
2003-02-24 08:22:20 51°10.202 2°40.704 6.74888 3.047554 32.536784 12.331708
2003-02-24 08:22:25 51°10.194 2°40.676 6.589991 3.047448 32.533768 12.331708
2003-02-24 08:22:30 51°10.187 2°40.647 6.913623 3.047659 32.533593 12.297999
2003-02-24 08:22:35 51°10.18 2°40.618 7.194143 3.049343 32.553476 12.196871
2003-02-24 08:22:40 51°10.173 2°40.589 7.036705 3.048817 32.544602 12.264289
2003-02-24 08:22:45 51°10.166 2°40.56 6.56714 3.048501 32.539987 12.264289
2003-02-24 08:22:50 51°10.159 2°40.531 6.56714 3.048501 32.539987 12.264289
2003-02-24 08:22:55 51°10.152 2°40.502 6.514878 3.049659 32.550108 12.23058
2003-02-24 08:23:00 51°10.144 2°40.473 6.962412 3.050501 32.5565 11.859777
2003-02-24 08:23:05 51°10.137 2°40.444 7.170527 3.051343 32.565552 11.826067
2003-02-24 08:23:10 51°10.13 2°40.416 7.089571 3.050396 32.555257 11.455264
2003-02-24 08:23:15 51°10.123 2°40.386 7.047213 3.051554 32.565375 11.488973
2003-02-24 08:23:20 51°10.116 2°40.358 7.047213 3.051554 32.565375 11.488973
2003-02-24 08:23:25 51°10.108 2°40.329 7.211922 3.051869 32.567328 11.11817
2003-02-24 08:23:30 51°10.101 2°40.3 7.293604 3.052396 32.571765 11.08446
2003-02-24 08:23:35 51°10.094 2°40.271 6.769102 3.052711 32.571943 11.11817
2003-02-24 08:23:40 51°10.087 2°40.242 7.411758 3.051975 32.561475 11.017042
2003-02-24 08:23:45 51°10.08 2°40.213 6.52775 3.053132 32.572476 10.949623
2003-02-24 08:23:50 51°10.072 2°40.184 6.52775 3.053132 32.572476 10.949623
2003-02-24 08:23:55 51°10.065 2°40.155 6.977356 3.055027 32.593058 10.915913
2003-02-24 08:24:00 51°10.058 2°40.126 7.301429 3.055448 32.596251 10.713657
2003-02-24 08:24:05 51°10.05 2°40.098 6.823077 3.054606 32.584541 10.342853
2003-02-24 08:24:10 51°10.043 2°40.068 7.389932 3.055975 32.600685 10.241725
2003-02-24 08:24:15 51°10.036 2°40.04 6.913131 3.057027 32.613105 10.039469
2003-02-24 08:24:20 51°10.029 2°40.011 6.913131 3.057027 32.613105 10.039469
2003-02-24 08:24:25 51°10.021 2°39.982 7.316197 3.057975 32.623395 9.97205
2003-02-24 08:24:30 51°10.014 2°39.953 6.59459 3.058396 32.623923 9.803503
2003-02-24 08:24:35 51°10.007 2°39.924 7.280838 3.059133 32.629951 9.702375
2003-02-24 08:24:40 51°10 2°39.895 7.122633 3.06187 32.659574 9.769794
2003-02-24 08:24:45 51°9.993 2°39.866 6.966001 3.062712 32.665954 10.039469
2003-02-24 08:24:50 51°9.985 2°39.837 6.966001 3.062712 32.665954 10.039469
2003-02-24 08:24:55 51°9.978 2°39.808 7.175624 3.064186 32.678893 9.97205
2003-02-24 08:25:00 51°9.971 2°39.779 6.734327 3.064501 32.679951 9.634956
2003-02-24 08:25:05 51°9.963 2°39.75 7.382362 3.066502 32.699985 9.769794
2003-02-24 08:25:10 51°9.956 2°39.721 7.546845 3.066396 32.696965 9.634956
2003-02-24 08:25:15 51°9.949 2°39.692 7.07004 3.068186 32.715402 10.106888
2003-02-24 08:25:20 51°9.941 2°39.663 7.07004 3.068186 32.715402 10.106888
2003-02-24 08:25:25 51°9.934 2°39.634 7.194976 3.067133 32.696762 9.837212
2003-02-24 08:25:30 51°9.927 2°39.605 7.477484 3.067975 32.704024 9.837212
2003-02-24 08:25:35 51°9.921 2°39.576 7.277511 3.072291 32.750467 10.039469
2003-02-24 08:25:40 51°9.914 2°39.546 6.796859 3.073555 32.760019 10.073178
2003-02-24 08:25:45 51°9.907 2°39.517 7.080248 3.07387 32.759291 10.106888
2003-02-24 08:25:50 51°9.901 2°39.488 7.080248 3.07387 32.759291 10.106888
2003-02-24 08:25:55 51°9.894 2°39.458 6.805337 3.073344 32.748635 10.241725
2003-02-24 08:26:00 51°9.887 2°39.429 6.68793 3.074923 32.763687 10.140597
2003-02-24 08:26:04 51°9.882 2°39.405 6.891872 3.076713 32.782109 10.241725
2003-02-24 08:26:10 51°9.874 2°39.37 7.25471 3.074397 32.754813 10.5114
2003-02-24 08:26:15 51°9.867 2°39.341 8.173096 3.077134 32.782619 10.578819
2003-02-24 08:26:20 51°9.86 2°39.311 8.173096 3.077134 32.782619 10.578819
2003-02-24 08:26:25 51°9.854 2°39.282 3.798422 3.07966 32.808832 10.54511
2003-02-24 08:26:30 51°9.847 2°39.253 3.804625 3.080081 32.81023 10.410272
2003-02-24 08:26:35 51°9.84 2°39.224 3.809484 3.080081 32.808448 10.410272
2003-02-24 08:26:40 51°9.834 2°39.194 3.81765 3.082187 32.828802 10.410272
2003-02-24 08:26:45 51°9.827 2°39.165 3.821887 3.082713 32.833221 10.309144
2003-02-24 08:26:50 51°9.82 2°39.136 3.821887 3.082713 32.833221 10.309144
2003-02-24 08:26:55 51°9.813 2°39.106 3.82814 3.082502 32.827175 10.410272
2003-02-24 08:27:00 51°9.807 2°39.077 3.831602 3.082924 32.829462 10.410272
2003-02-24 08:27:05 51°9.8 2°39.048 3.835012 3.083345 32.829967 10.241725
2003-02-24 08:27:10 51°9.793 2°39.019 3.831188 3.084397 32.837911 10.140597
2003-02-24 08:27:15 51°9.786 2°38.989 3.832067 3.084818 32.838415 10.140597
2003-02-24 08:27:20 51°9.78 2°38.96 3.832067 3.084818 32.838415 10.140597
2003-02-24 08:27:25 51°9.773 2°38.931 3.822817 3.08745 32.864062 10.275435
2003-02-24 08:27:30 51°9.766 2°38.901 3.818735 3.090187 32.88916 10.275435
2003-02-24 08:27:35 51°9.76 2°38.872 3.809587 3.089766 32.881526 10.275435
2003-02-24 08:27:40 51°9.753 2°38.843 3.798266 3.091556 32.896354 10.208016
2003-02-24 08:27:45 51°9.746 2°38.814 3.792425 3.090608 32.888767 10.208016
2003-02-24 08:27:50 51°9.74 2°38.785 3.792425 3.090608 32.888767 10.208016
2003-02-24 08:27:55 51°9.733 2°38.756 3.787668 3.093556 32.924369 10.309144
2003-02-24 08:28:00 51°9.726 2°38.727 3.783531 3.093661 32.928288 10.376563
2003-02-24 08:28:05 51°9.719 2°38.697 3.782963 3.092398 32.917874 10.241725
2003-02-24 08:28:10 51°9.713 2°38.668 3.78229 3.092925 32.930328 10.073178
2003-02-24 08:28:15 51°9.706 2°38.639 3.781928 3.090924 32.914803 10.208016
2003-02-24 08:28:20 51°9.699 2°38.61 3.781928 3.090924 32.914803 10.208016
2003-02-24 08:28:25 51°9.692 2°38.58 3.780222 3.09124 32.925673 10.039469
2003-02-24 08:28:30 51°9.686 2°38.551 3.781049 3.09124 32.930143 10.309144
2003-02-24 08:28:35 51°9.679 2°38.522 3.783738 3.089661 32.916893 10.275435
2003-02-24 08:28:40 51°9.672 2°38.493 3.783738 3.089345 32.915852 10.309144
2003-02-24 08:28:45 51°9.666 2°38.464 3.784514 3.088082 32.901853 10.309144
2003-02-24 08:28:50 51°9.659 2°38.435 3.784514 3.088082 32.901853 10.309144
2003-02-24 08:28:55 51°9.652 2°38.406 3.784876 3.087345 32.89406 10.612529
2003-02-24 08:29:00 51°9.645 2°38.376 3.787409 3.088082 32.901853 10.477691
2003-02-24 08:29:05 51°9.639 2°38.347 3.78865 3.087345 32.894953 10.612529
2003-02-24 08:29:10 51°9.632 2°38.318 3.792218 3.086292 32.879864 10.713657
2003-02-24 08:29:15 51°9.625 2°38.289 3.799249 3.088609 32.908952 10.612529
2003-02-24 08:29:20 51°9.618 2°38.26 3.799249 3.088609 32.908952 10.612529
2003-02-24 08:29:25 51°9.612 2°38.231 3.80907 3.086714 32.885721 10.5114
2003-02-24 08:29:30 51°9.605 2°38.202 3.814032 3.087872 32.898478 10.578819
2003-02-24 08:29:35 51°9.599 2°38.172 3.814652 3.090293 32.925233 10.646238
2003-02-24 08:29:40 51°9.593 2°38.143 3.816306 3.090714 32.926621 10.781076
2003-02-24 08:29:45 51°9.587 2°38.113 3.822042 3.091346 32.932278 10.410272
2003-02-24 08:29:50 51°9.581 2°38.083 3.822042 3.091346 32.932278 10.410272
2003-02-24 08:29:55 51°9.575 2°38.054 3.819303 3.092188 32.937734 10.443982
2003-02-24 08:30:00 51°9.569 2°38.024 3.818528 3.092188 32.930582 10.376563
2003-02-24 08:30:05 51°9.563 2°37.995 3.813412 3.095135 32.96174 10.443982
2003-02-24 08:30:10 51°9.557 2°37.965 3.811861 3.096083 32.969326 10.54511
2003-02-24 08:30:15 51°9.551 2°37.936 3.813928 3.094925 32.952105 10.410272
2003-02-24 08:30:20 51°9.545 2°37.906 3.813928 3.094925 32.952105 10.410272
2003-02-24 08:30:25 51°9.539 2°37.877 3.816358 3.095556 32.956864 10.54511
2003-02-24 08:30:30 51°9.533 2°37.847 3.82075 3.097978 32.984495 10.342853
2003-02-24 08:30:35 51°9.527 2°37.817 3.821629 3.098188 32.988766 10.713657
2003-02-24 08:30:40 51°9.521 2°37.788 3.819613 3.097346 32.979738 10.646238
2003-02-24 08:30:45 51°9.515 2°37.758 3.821422 3.097241 32.979392 10.679947
2003-02-24 08:30:50 51°9.508 2°37.728 3.821422 3.097241 32.979392 10.679947
2003-02-24 08:30:55 51°9.502 2°37.699 3.82044 3.096504 32.971604 10.5114
2003-02-24 08:31:00 51°9.496 2°37.67 3.822197 3.09503 32.951557 10.646238
2003-02-24 08:31:05 51°9.49 2°37.64 3.823127 3.097241 32.975813 10.679947
2003-02-24 08:31:10 51°9.484 2°37.61 3.827106 3.097978 32.9836 10.5114
2003-02-24 08:31:15 51°9.478 2°37.58 3.827365 3.098188 32.984291 10.578819
2003-02-24 08:31:20 51°9.472 2°37.551 3.827365 3.098188 32.984291 10.578819
2003-02-24 08:31:25 51°9.466 2°37.521 3.826124 3.096399 32.964997 10.477691
2003-02-24 08:31:30 51°9.46 2°37.491 3.824109 3.098609 32.989252 10.54511
2003-02-24 08:31:35 51°9.453 2°37.462 3.82938 3.098609 32.987463 10.410272
2003-02-24 08:31:40 51°9.447 2°37.432 3.831085 3.097767 32.976647 10.915913
2003-02-24 08:31:45 51°9.441 2°37.402 3.83124 3.098294 32.980164 10.882204
2003-02-24 08:31:50 51°9.435 2°37.372 3.83124 3.098294 32.980164 10.882204
2003-02-24 08:31:55 51°9.429 2°37.343 3.837027 3.099136 32.991874 10.983332
2003-02-24 08:32:00 51°9.423 2°37.313 3.840953 3.099767 32.99663 11.050751
2003-02-24 08:32:05 51°9.417 2°37.284 3.842451 3.099136 32.988295 10.915913
2003-02-24 08:32:10 51°9.411 2°37.254 3.843691 3.100926 33.007586 10.882204
2003-02-24 08:32:15 51°9.405 2°37.224 3.842554 3.101557 33.014131 10.882204
2003-02-24 08:32:20 51°9.399 2°37.195 3.842554 3.101557 33.014131 10.882204
2003-02-24 08:32:25 51°9.393 2°37.165 3.843794 3.102189 33.020676 10.814785
2003-02-24 08:32:30 51°9.387 2°37.135 3.846584 3.101031 33.003456 10.781076
2003-02-24 08:32:35 51°9.38 2°37.106 3.848392 3.101768 33.00945 10.713657
2003-02-24 08:32:40 51°9.374 2°37.076 3.853402 3.10261 33.016683 10.781076
2003-02-24 08:32:45 51°9.368 2°37.046 3.855829 3.103557 33.026946 10.814785
2003-02-24 08:32:50 51°9.362 2°37.016 3.855829 3.103557 33.026946 10.814785
2003-02-24 08:32:55 51°9.356 2°36.987 3.856707 3.103663 33.02729 10.949623
2003-02-24 08:33:00 51°9.35 2°36.957 3.85867 3.102926 33.018612 11.017042
2003-02-24 08:33:05 51°9.344 2°36.927 3.858257 3.102715 33.013448 10.915913
2003-02-24 08:33:10 51°9.338 2°36.897 3.862802 3.104084 33.025982 10.781076
2003-02-24 08:33:15 51°9.332 2°36.868 3.865487 3.103768 33.020474 10.781076
2003-02-24 08:33:20 51°9.326 2°36.838 3.865487 3.103768 33.020474 10.781076
2003-02-24 08:33:25 51°9.319 2°36.808 3.868069 3.105452 33.038515 11.050751
2003-02-24 08:33:30 51°9.314 2°36.778 3.871322 3.105452 33.036724 10.915913
2003-02-24 08:33:35 51°9.307 2°36.748 3.876227 3.104926 33.026947 10.848494
2003-02-24 08:33:40 51°9.301 2°36.719 3.882061 3.106505 33.045537 10.983332
2003-02-24 08:33:45 51°9.295 2°36.689 3.887172 3.106294 33.040373 11.151879
2003-02-24 08:33:50 51°9.289 2°36.66 3.887172 3.106294 33.040373 11.151879
2003-02-24 08:33:55 51°9.283 2°36.632 3.895173 3.108189 33.059098 11.354136
2003-02-24 08:34:00 51°9.277 2°36.603 3.897186 3.108505 33.061024 11.758648
2003-02-24 08:34:05 51°9.272 2°36.575 3.903379 3.109769 33.073207 11.69123
2003-02-24 08:34:10 51°9.266 2°36.547 3.905547 3.109769 33.067833 11.69123
2003-02-24 08:34:15 51°9.26 2°36.519 3.910191 3.110611 33.074162 11.69123
2003-02-24 08:34:20 51°9.254 2°36.491 3.910191 3.110611 33.074162 11.69123
2003-02-24 08:34:25 51°9.248 2°36.463 3.91917 3.112401 33.090743 11.826067
2003-02-24 08:34:30 51°9.242 2°36.435 3.92046 3.113769 33.099679 11.556392
2003-02-24 08:34:35 51°9.236 2°36.407 3.917725 3.114822 33.108481 11.253007
2003-02-24 08:34:40 51°9.23 2°36.379 3.918447 3.114822 33.104897 11.253007
2003-02-24 08:34:45 51°9.225 2°36.351 3.920718 3.116085 33.115278 11.253007
2003-02-24 08:34:50 51°9.219 2°36.323 3.920718 3.116085 33.115278 11.253007
2003-02-24 08:34:55 51°9.213 2°36.295 3.923916 3.117033 33.121942 11.960905
2003-02-24 08:35:00 51°9.207 2°36.267 3.930675 3.117875 33.126471 12.432836
2003-02-24 08:35:05 51°9.202 2°36.239 3.939031 3.119665 33.143933 12.196871
2003-02-24 08:35:10 51°9.196 2°36.211 3.938103 3.119138 33.13595 11.724939
2003-02-24 08:35:15 51°9.191 2°36.184 3.945014 3.119559 33.140902 11.724939
2003-02-24 08:35:20 51°9.185 2°36.156 3.945014 3.119559 33.140902 11.724939
2003-02-24 08:35:25 51°9.18 2°36.128 3.948882 3.120191 33.146537 11.960905
2003-02-24 08:35:30 51°9.174 2°36.1 3.951718 3.120402 33.145427 12.331708
2003-02-24 08:35:35 51°9.168 2°36.072 3.954245 3.121244 33.150848 12.23058
2003-02-24 08:35:40 51°9.163 2°36.044 3.954864 3.123139 33.166851 12.635093
2003-02-24 08:35:45 51°9.158 2°36.016 3.953781 3.123455 33.167874 13.275571
2003-02-24 08:35:50 51°9.152 2°35.988 3.953781 3.123455 33.167874 13.275571
2003-02-24 08:35:55 51°9.147 2°35.96 3.94914 3.124086 33.170816 13.34299
2003-02-24 08:36:00 51°9.142 2°35.933 3.949501 3.124718 33.173758 13.34299
2003-02-24 08:36:05 51°9.137 2°35.905 3.94455 3.125139 33.176914 13.275571
2003-02-24 08:36:10 51°9.131 2°35.877 3.941146 3.125455 33.177936 13.578956
2003-02-24 08:36:15 51°9.126 2°35.849 3.939495 3.125981 33.182328 13.410409
2003-02-24 08:36:20 51°9.12 2°35.821 3.939495 3.125981 33.182328 13.410409
2003-02-24 08:36:25 51°9.114 2°35.794 3.939547 3.127034 33.1947 13.309281
2003-02-24 08:36:30 51°9.109 2°35.768 3.940785 3.125455 33.177039 13.275571
2003-02-24 08:36:35 51°9.104 2°35.744 3.944034 3.125244 33.175462 13.275571
2003-02-24 08:36:40 51°9.1 2°35.721 3.947232 3.125244 33.177254 13.174443
2003-02-24 08:36:45 51°9.095 2°35.699 3.947232 3.125665 33.18579 12.904768
2003-02-24 08:36:50 51°9.09 2°35.677 3.947232 3.125665 33.18579 12.904768
2003-02-24 08:36:55 51°9.086 2°35.656 3.948624 3.124507 33.173972 12.635093
2003-02-24 08:37:00 51°9.081 2°35.636 3.944756 3.124823 33.177684 13.309281
2003-02-24 08:37:05 51°9.076 2°35.617 3.942693 3.125981 33.189502 13.275571
2003-02-24 08:37:10 51°9.072 2°35.598 3.945065 3.126824 33.19671 13.275571
2003-02-24 08:37:15 51°9.067 2°35.58 3.942126 3.126929 33.194359 13.039606
2003-02-24 08:37:20 51°9.063 2°35.562 3.942126 3.126929 33.194359 13.039606
2003-02-24 08:37:25 51°9.059 2°35.544 3.939702 3.126087 33.182669 12.837349
2003-02-24 08:37:30 51°9.055 2°35.527 3.939444 3.126613 33.190648 12.331708
2003-02-24 08:37:35 51°9.052 2°35.509 3.936246 3.12735 33.199308 11.792358
2003-02-24 08:37:40 51°9.049 2°35.491 3.935627 3.127876 33.207289 11.522683
2003-02-24 08:37:44 51°9.048 2°35.477 3.934285 3.126087 33.190739 11.354136
2003-02-24 08:37:50 51°9.046 2°35.455 3.934285 3.126087 33.190739 11.354136
2003-02-24 08:37:55 51°9.045 2°35.439 3.934337 3.127455 33.207723 11.253007
2003-02-24 08:38:00 51°9.044 2°35.422 3.936349 3.126508 33.195689 11.590101
2003-02-24 08:38:05 51°9.043 2°35.407 3.936555 3.127034 33.20367 11.859777
2003-02-24 08:38:10 51°9.042 2°35.392 3.937432 3.12535 33.183871 12.028324
2003-02-24 08:38:15 51°9.041 2°35.377 3.940372 3.127455 33.20862 12.196871
2003-02-24 08:38:20 51°9.04 2°35.363 3.940372 3.127455 33.20862 12.196871
2003-02-24 08:38:25 51°9.04 2°35.349 3.945169 3.125244 33.183531 12.500255
2003-02-24 08:38:30 51°9.039 2°35.336 3.949604 3.126929 33.206022 12.365418
2003-02-24 08:38:35 51°9.038 2°35.323 3.958164 3.127034 33.206363 12.80364
2003-02-24 08:38:40 51°9.037 2°35.31 3.963475 3.127139 33.205805 12.635093
2003-02-24 08:38:45 51°9.036 2°35.298 3.968115 3.127666 33.211993 12.635093
2003-02-24 08:38:50 51°9.035 2°35.286 3.968115 3.127666 33.211993 12.635093
2003-02-24 08:38:55 51°9.034 2°35.275 3.973425 3.128824 33.222913 12.399127
2003-02-24 08:39:00 51°9.033 2°35.263 3.9776 3.129982 33.232934 11.893486
2003-02-24 08:39:05 51°9.031 2°35.252 3.980384 3.128297 33.209546 11.151879
2003-02-24 08:39:09 51°9.03 2°35.243 3.983941 3.130403 33.228906 10.54511
2003-02-24 08:39:15 51°9.029 2°35.23 3.987961 3.129666 33.217554 10.241725
2003-02-24 08:39:20 51°9.028 2°35.22 3.987961 3.129666 33.217554 10.241725
2003-02-24 08:39:25 51°9.027 2°35.209 3.99162 3.132193 33.242755 9.4327
2003-02-24 08:39:30 51°9.026 2°35.199 3.99332 3.13293 33.246027 9.028187
2003-02-24 08:39:35 51°9.025 2°35.189 3.995743 3.131877 33.228276 8.960768
2003-02-24 08:39:40 51°9.025 2°35.178 3.997546 3.132509 33.232107 8.893349
2003-02-24 08:39:45 51°9.024 2°35.168 4.002854 3.135246 33.260666 8.724802
2003-02-24 08:39:50 51°9.024 2°35.159 4.002854 3.135246 33.260666 8.724802
2003-02-24 08:39:55 51°9.023 2°35.149 4.003111 3.135562 33.259887 8.623674
2003-02-24 08:40:00 51°9.023 2°35.139 4.004657 3.135667 33.258431 8.724802
2003-02-24 08:40:05 51°9.023 2°35.129 4.005739 3.137036 33.272708 8.927059
2003-02-24 08:40:10 51°9.023 2°35.12 4.007491 3.137457 33.273164 9.095606
2003-02-24 08:40:15 51°9.024 2°35.11 4.011407 3.135878 33.251931 9.601247
2003-02-24 08:40:20 51°9.024 2°35.101 4.011407 3.135878 33.251931 9.601247
2003-02-24 08:40:25 51°9.024 2°35.092 4.009912 3.137773 33.273282 10.140597
2003-02-24 08:40:30 51°9.025 2°35.083 4.013261 3.138299 33.275871 10.309144
2003-02-24 08:40:35 51°9.025 2°35.074 4.016507 3.139352 33.286435 10.578819
2003-02-24 08:40:40 51°9.026 2°35.065 4.018928 3.138299 33.272281 10.915913
2003-02-24 08:40:45 51°9.027 2°35.057 4.021401 3.139036 33.27824 11.08446
2003-02-24 08:40:50 51°9.027 2°35.049 4.021401 3.139036 33.27824 11.08446
2003-02-24 08:40:55 51°9.028 2°35.042 4.022637 3.139562 33.281726 11.151879
2003-02-24 08:41:00 51°9.029 2°35.036 4.024028 3.139352 33.276563 11.488973
2003-02-24 08:41:05 51°9.03 2°35.031 4.023049 3.138404 33.264546 11.320426
2003-02-24 08:41:10 51°9.03 2°35.027 4.024234 3.140194 33.283755 11.522683
2003-02-24 08:41:15 51°9.031 2°35.025 4.021555 3.141036 33.291844 11.219298
2003-02-24 08:41:20 51°9.031 2°35.023 4.021555 3.141036 33.291844 11.219298
2003-02-24 08:41:25 51°9.031 2°35.022 4.024903 3.14051 33.281181 11.185589
2003-02-24 08:41:30 51°9.032 2°35.021 4.02583 3.141668 33.293872 11.151879
2003-02-24 08:41:35 51°9.032 2°35.02 4.02583 3.141352 33.290166 11.11817
2003-02-24 08:41:40 51°9.033 2°35.019 4.030002 3.142721 33.303533 11.185589
2003-02-24 08:41:45 51°9.033 2°35.017 4.03165 3.142405 33.298929 11.387845
2003-02-24 08:41:50 51°9.034 2°35.016 4.03165 3.142405 33.298929 11.387845
2003-02-24 08:41:55 51°9.035 2°35.015 4.031084 3.14051 33.275799 11.11817
2003-02-24 08:42:00 51°9.035 2°35.013 4.035204 3.141773 33.290621 11.08446
2003-02-24 08:42:05 51°9.036 2°35.012 4.03886 3.140826 33.280401 11.65752
2003-02-24 08:42:10 51°9.036 2°35.011 4.041332 3.141036 33.281078 12.129452
2003-02-24 08:42:15 51°9.037 2°35.01 4.04401 3.141879 33.289164 12.297999
2003-02-24 08:42:20 51°9.038 2°35.008 4.04401 3.141879 33.289164 12.297999
2003-02-24 08:42:25 51°9.039 2°35.007 4.042208 3.142194 33.291972 12.567674
2003-02-24 08:42:30 51°9.04 2°35.005 4.042671 3.1443 33.31488 12.837349
2003-02-24 08:42:35 51°9.04 2°35.004 4.040405 3.142931 33.296132 12.635093
2003-02-24 08:42:40 51°9.041 2°35.002 4.040972 3.143458 33.299615 13.039606
2003-02-24 08:42:45 51°9.042 2°35.001 4.042568 3.143879 33.301863 12.80364
2003-02-24 08:42:50 51°9.043 2°34.999 4.042568 3.143879 33.301863 12.80364
2003-02-24 08:42:55 51°9.043 2°34.997 4.042156 3.147037 33.337114 12.904768
2003-02-24 08:43:00 51°9.044 2°34.996 4.04746 3.146616 33.330379 12.938477
2003-02-24 08:43:05 51°9.045 2°34.994 4.049674 3.147248 33.337788 12.938477
2003-02-24 08:43:10 51°9.046 2°34.992 4.052145 3.144826 33.309387 12.837349
2003-02-24 08:43:15 51°9.047 2°34.991 4.056676 3.146616 33.332174 12.938477
2003-02-24 08:43:20 51°9.048 2°34.989 4.056676 3.146616 33.332174 12.938477
2003-02-24 08:43:25 51°9.048 2°34.987 4.055028 3.147353 33.340819 13.039606
2003-02-24 08:43:30 51°9.049 2°34.986 4.050189 3.145879 33.321735 12.938477
2003-02-24 08:43:35 51°9.05 2°34.984 4.047717 3.147353 33.335431 12.972187
2003-02-24 08:43:40 51°9.051 2°34.982 4.043855 3.147669 33.337339 12.972187
2003-02-24 08:43:45 51°9.052 2°34.98 4.039375 3.146722 33.322637 12.904768
2003-02-24 08:43:50 51°9.053 2°34.979 4.039375 3.146722 33.322637 12.904768
2003-02-24 08:43:55 51°9.054 2°34.977 4.037933 3.148196 33.33633 12.76993
2003-02-24 08:43:59 51°9.055 2°34.975 4.038242 3.148827 33.343737 12.871059
2003-02-24 08:44:05 51°9.056 2°34.973 4.035771 3.147774 33.334085 12.736221
2003-02-24 08:44:10 51°9.057 2°34.971 4.035204 3.1463 33.321289 12.80364
2003-02-24 08:44:15 51°9.058 2°34.969 4.034844 3.147248 33.333298 12.702512
2003-02-24 08:44:20 51°9.059 2°34.967 4.034844 3.147248 33.333298 12.702512
2003-02-24 08:44:25 51°9.06 2°34.965 4.036903 3.145669 33.318368 12.365418
2003-02-24 08:44:30 51°9.061 2°34.963 4.036594 3.144932 33.311519 12.365418
2003-02-24 08:44:35 51°9.062 2°34.961 4.037212 3.144826 33.312079 12.23058
2003-02-24 08:44:40 51°9.063 2°34.959 4.036646 3.144826 33.314771 12.264289
2003-02-24 08:44:45 51°9.063 2°34.957 4.037264 3.143458 33.299615 11.792358
2003-02-24 08:44:50 51°9.064 2°34.955 4.037264 3.143458 33.299615 11.792358
2003-02-24 08:44:55 51°9.065 2°34.953 4.039015 3.145037 33.318139 11.927195
2003-02-24 08:45:00 51°9.066 2°34.951 4.036234 3.143984 33.304892 12.028324
2003-02-24 08:45:05 51°9.067 2°34.949 4.034844 3.144089 33.30523 11.590101
2003-02-24 08:45:10 51°9.068 2°34.947 4.034947 3.144826 33.314771 11.253007
2003-02-24 08:45:15 51°9.069 2°34.945 4.035874 3.142826 33.290412 11.185589
2003-02-24 08:45:20 51°9.069 2°34.943 4.035874 3.142826 33.290412 11.185589
2003-02-24 08:45:25 51°9.07 2°34.941 4.03541 3.14251 33.286708 11.017042
2003-02-24 08:45:30 51°9.071 2°34.938 4.036903 3.143247 33.295351 11.050751
2003-02-24 08:45:35 51°9.072 2°34.936 4.03644 3.142826 33.292206 11.08446
2003-02-24 08:45:40 51°9.073 2°34.934 4.037418 3.14251 33.289398 11.017042
2003-02-24 08:45:45 51°9.073 2°34.932 4.037315 3.143774 33.30332 11.017042
2003-02-24 08:45:50 51°9.074 2°34.93 4.037315 3.143774 33.30332 11.017042
2003-02-24 08:45:55 51°9.075 2°34.928 4.038294 3.142405 33.28637 10.983332
2003-02-24 08:45:59 51°9.075 2°34.926 4.03747 3.143037 33.295572 11.017042
2003-02-24 08:46:05 51°9.076 2°34.924 4.038603 3.142089 33.283562 11.151879
2003-02-24 08:46:10 51°9.077 2°34.922 4.03886 3.143458 33.298718 11.151879
2003-02-24 08:46:15 51°9.078 2°34.92 4.039427 3.143668 33.299393 11.050751
2003-02-24 08:46:20 51°9.078 2°34.917 4.039427 3.143668 33.299393 11.050751
2003-02-24 08:46:25 51°9.079 2°34.915 4.040663 3.143668 33.30029 11.320426
2003-02-24 08:46:30 51°9.08 2°34.913 4.040869 3.142615 33.287942 11.320426
2003-02-24 08:46:35 51°9.08 2°34.911 4.043186 3.144089 33.306127 11.792358
2003-02-24 08:46:40 51°9.081 2°34.909 4.042465 3.143984 33.302201 11.421554
2003-02-24 08:46:45 51°9.082 2°34.907 4.042568 3.145353 33.317356 11.522683
2003-02-24 08:46:50 51°9.082 2°34.905 4.042568 3.145353 33.317356 11.522683
2003-02-24 08:46:55 51°9.083 2°34.903 4.04298 3.142931 33.289853 11.387845
2003-02-24 08:47:00 51°9.084 2°34.901 4.04334 3.144826 33.310284 11.08446
2003-02-24 08:47:05 51°9.084 2°34.899 4.042568 3.145142 33.313989 11.219298
2003-02-24 08:47:10 51°9.085 2°34.897 4.04195 3.144089 33.300744 11.421554
2003-02-24 08:47:15 51°9.086 2°34.895 4.043289 3.145037 33.311857 11.455264
2003-02-24 08:47:20 51°9.086 2°34.893 4.043289 3.145037 33.311857 11.455264
2003-02-24 08:47:25 51°9.087 2°34.89 4.044216 3.144826 33.307593 11.792358
2003-02-24 08:47:30 51°9.087 2°34.888 4.045915 3.145142 33.311297 11.927195
2003-02-24 08:47:35 51°9.087 2°34.886 4.046276 3.146195 33.323644 11.792358
2003-02-24 08:47:40 51°9.088 2°34.884 4.045503 3.145248 33.313429 11.556392
2003-02-24 08:47:45 51°9.088 2°34.882 4.04607 3.143984 33.297716 11.185589
2003-02-24 08:47:50 51°9.089 2°34.88 4.04607 3.143984 33.297716 11.185589
2003-02-24 08:47:55 51°9.09 2°34.878 4.047151 3.143774 33.295246 11.11817